<?xml version='1.0' encoding='utf-8'?>
<gpx xmlns="http://www.topografix.com/GPX/1/1" xmlns:xsi="http://www.w3.org/2001/XMLSchema-instance" version="v1.1.5" creator="iTravel Tech Inc. - http://www.itravel-tech.com" xsi:schemaLocation="http://www.topografix.com/GPX/1/1 http://www.topografix.com/GPX/1/1/gpx.xsd http://www.topografix.com/GPX/gpx_overlay/0/3 http://www.topografix.com/GPX/gpx_overlay/0/3/gpx_overlay.xsd http://www.topografix.com/GPX/gpx_modified/0/1 http://www.topografix.com/GPX/gpx_modified/0/1/gpx_modified.xsd">
	<name>day2</name>
	<desc>Export from Prune</desc>
	<trk><name>day2</name><number>1</number><trkseg>
<trkpt lat="22.348923" lon="103.774574">
<ele>1954.7</ele>
<time>2011-04-23T23:01:03Z</time>
<desc>lat.=22.348923, lon.=103.774574, Alt.=1977.860352m. Speed=0.360000m/h.</desc>
<speed>0.100000</speed>
</trkpt>
<trkpt lat="22.348364" lon="103.774368">
<ele>1965.7</ele>
<time>2011-04-23T23:03:23Z</time>
<desc>lat.=22.348364, lon.=103.774368, Alt.=1965.516602m. Speed=2.700000m/h.</desc>
<speed>0.750000</speed>
</trkpt>
<trkpt lat="22.347692" lon="103.773697">
<ele>1977.8</ele>
<time>2011-04-23T23:05:08Z</time>
<desc>lat.=22.347692, lon.=103.773697, Alt.=1965.079102m. Speed=1.584000m/h.</desc>
<speed>0.440000</speed>
</trkpt>
<trkpt lat="22.347424" lon="103.773643">
<ele>1981.6</ele>
<time>2011-04-23T23:05:38Z</time>
<desc>lat.=22.347424, lon.=103.773643, Alt.=1965.454102m. Speed=4.572000m/h.</desc>
<speed>1.270000</speed>
</trkpt>
<trkpt lat="22.347271" lon="103.773895">
<ele>1993.9</ele>
<time>2011-04-23T23:06:43Z</time>
<desc>lat.=22.347271, lon.=103.773895, Alt.=1969.735352m. Speed=1.512000m/h.</desc>
<speed>0.420000</speed>
</trkpt>
<trkpt lat="22.346956" lon="103.773918">
<ele>2004.5</ele>
<time>2011-04-23T23:07:38Z</time>
<desc>lat.=22.346956, lon.=103.773918, Alt.=1971.110352m. Speed=2.052000m/h.</desc>
<speed>0.570000</speed>
</trkpt>
<trkpt lat="22.346560" lon="103.774223">
<ele>2012.2</ele>
<time>2011-04-23T23:09:18Z</time>
<desc>lat.=22.346560, lon.=103.774223, Alt.=1972.422852m. Speed=1.692000m/h.</desc>
<speed>0.470000</speed>
</trkpt>
<trkpt lat="22.346399" lon="103.774376">
<ele>2017.5</ele>
<time>2011-04-23T23:09:48Z</time>
<desc>lat.=22.346399, lon.=103.774376, Alt.=1972.672852m. Speed=0.648000m/h.</desc>
<speed>0.180000</speed>
</trkpt>
<trkpt lat="22.346436" lon="103.774529">
<ele>2019.4</ele>
<time>2011-04-23T23:10:28Z</time>
<desc>lat.=22.346436, lon.=103.774529, Alt.=1973.079102m. Speed=2.376000m/h.</desc>
<speed>0.660000</speed>
</trkpt>
<trkpt lat="22.346008" lon="103.774673">
<ele>2024.4</ele>
<time>2011-04-23T23:11:28Z</time>
<desc>lat.=22.346008, lon.=103.774673, Alt.=1988.141602m. Speed=3.204000m/h.</desc>
<speed>0.890000</speed>
</trkpt>
<trkpt lat="22.345638" lon="103.775124">
<ele>2023.0</ele>
<time>2011-04-23T23:12:23Z</time>
<desc>lat.=22.345638, lon.=103.775124, Alt.=2020.610352m. Speed=3.276000m/h.</desc>
<speed>0.910000</speed>
</trkpt>
<trkpt lat="22.343992" lon="103.775383">
<ele>2021.2</ele>
<time>2011-04-23T23:14:58Z</time>
<desc>lat.=22.343992, lon.=103.775383, Alt.=2031.141602m. Speed=4.572000m/h.</desc>
<speed>1.270000</speed>
</trkpt>
<trkpt lat="22.343559" lon="103.775253">
<ele>2021.1</ele>
<time>2011-04-23T23:15:33Z</time>
<desc>lat.=22.343559, lon.=103.775253, Alt.=2022.672852m. Speed=5.148000m/h.</desc>
<speed>1.430000</speed>
</trkpt>
<trkpt lat="22.342979" lon="103.775703">
<ele>2015.7</ele>
<time>2011-04-23T23:16:33Z</time>
<desc>lat.=22.342979, lon.=103.775703, Alt.=2024.704102m. Speed=2.700000m/h.</desc>
<speed>0.750000</speed>
</trkpt>
<trkpt lat="22.342827" lon="103.776093">
<ele>2015.5</ele>
<time>2011-04-23T23:17:33Z</time>
<desc>lat.=22.342827, lon.=103.776093, Alt.=2028.141602m. Speed=1.872000m/h.</desc>
<speed>0.520000</speed>
</trkpt>
<trkpt lat="22.342287" lon="103.776382">
<ele>2004.5</ele>
<time>2011-04-23T23:18:33Z</time>
<desc>lat.=22.342287, lon.=103.776382, Alt.=2017.704102m. Speed=3.204000m/h.</desc>
<speed>0.890000</speed>
</trkpt>
<trkpt lat="22.341522" lon="103.776466">
<ele>2009.8</ele>
<time>2011-04-23T23:20:03Z</time>
<desc>lat.=22.341522, lon.=103.776466, Alt.=1993.547852m. Speed=1.116000m/h.</desc>
<speed>0.310000</speed>
</trkpt>
<trkpt lat="22.341127" lon="103.776093">
<ele>2013.2</ele>
<time>2011-04-23T23:26:43Z</time>
<desc>lat.=22.341127, lon.=103.776093, Alt.=1985.329102m. Speed=3.924000m/h.</desc>
<speed>1.090000</speed>
</trkpt>
<trkpt lat="22.340588" lon="103.776237">
<ele>2023.4</ele>
<time>2011-04-23T23:28:13Z</time>
<desc>lat.=22.340588, lon.=103.776237, Alt.=2004.485352m. Speed=1.152000m/h.</desc>
<speed>0.320000</speed>
</trkpt>
<trkpt lat="22.339338" lon="103.775864">
<ele>2062.6</ele>
<time>2011-04-23T23:32:13Z</time>
<desc>lat.=22.339338, lon.=103.775864, Alt.=2061.220703m. Speed=4.176000m/h.</desc>
<speed>1.160000</speed>
</trkpt>
<trkpt lat="22.338993" lon="103.776169">
<ele>2075.6</ele>
<time>2011-04-23T23:33:33Z</time>
<desc>lat.=22.338993, lon.=103.776169, Alt.=2082.345703m. Speed=0.396000m/h.</desc>
<speed>0.110000</speed>
</trkpt>
<trkpt lat="22.338774" lon="103.776619">
<ele>2082.4</ele>
<time>2011-04-23T23:34:33Z</time>
<desc>lat.=22.338774, lon.=103.776619, Alt.=2097.283203m. Speed=0.576000m/h.</desc>
<speed>0.160000</speed>
</trkpt>
<trkpt lat="22.338383" lon="103.776840">
<ele>2091.5</ele>
<time>2011-04-23T23:35:53Z</time>
<desc>lat.=22.338383, lon.=103.776840, Alt.=2107.720703m. Speed=2.628000m/h.</desc>
<speed>0.730000</speed>
</trkpt>
<trkpt lat="22.338058" lon="103.777817">
<ele>2088.1</ele>
<time>2011-04-23T23:37:33Z</time>
<desc>lat.=22.338058, lon.=103.777817, Alt.=2100.908203m. Speed=2.484000m/h.</desc>
<speed>0.690000</speed>
</trkpt>
<trkpt lat="22.338236" lon="103.778145">
<ele>2078.8</ele>
<time>2011-04-23T23:38:03Z</time>
<desc>lat.=22.338236, lon.=103.778145, Alt.=2099.970703m. Speed=4.500000m/h.</desc>
<speed>1.250000</speed>
</trkpt>
<trkpt lat="22.338179" lon="103.778366">
<ele>2076.1</ele>
<time>2011-04-23T23:38:28Z</time>
<desc>lat.=22.338179, lon.=103.778366, Alt.=2101.533203m. Speed=4.968000m/h.</desc>
<speed>1.380000</speed>
</trkpt>
<trkpt lat="22.337719" lon="103.778839">
<ele>2075.6</ele>
<time>2011-04-23T23:39:33Z</time>
<desc>lat.=22.337719, lon.=103.778839, Alt.=2110.908203m. Speed=4.680000m/h.</desc>
<speed>1.300000</speed>
</trkpt>
<trkpt lat="22.337431" lon="103.779472">
<ele>2071.7</ele>
<time>2011-04-23T23:40:38Z</time>
<desc>lat.=22.337431, lon.=103.779472, Alt.=2084.533203m. Speed=4.464000m/h.</desc>
<speed>1.240000</speed>
</trkpt>
<trkpt lat="22.336409" lon="103.779762">
<ele>2078.1</ele>
<time>2011-04-23T23:42:38Z</time>
<desc>lat.=22.336409, lon.=103.779762, Alt.=2067.095703m. Speed=3.636000m/h.</desc>
<speed>1.010000</speed>
</trkpt>
<trkpt lat="22.335884" lon="103.779541">
<ele>2080.4</ele>
<time>2011-04-23T23:43:38Z</time>
<desc>lat.=22.335884, lon.=103.779541, Alt.=2063.845703m. Speed=3.204000m/h.</desc>
<speed>0.890000</speed>
</trkpt>
<trkpt lat="22.335524" lon="103.779686">
<ele>2078.1</ele>
<time>2011-04-23T23:44:18Z</time>
<desc>lat.=22.335524, lon.=103.779686, Alt.=2072.845703m. Speed=3.240000m/h.</desc>
<speed>0.900000</speed>
</trkpt>
<trkpt lat="22.334764" lon="103.779083">
<ele>2101.8</ele>
<time>2011-04-23T23:52:03Z</time>
<desc>lat.=22.334764, lon.=103.779083, Alt.=2067.783203m. Speed=3.996000m/h.</desc>
<speed>1.110000</speed>
</trkpt>
<trkpt lat="22.334360" lon="103.778976">
<ele>2111.9</ele>
<time>2011-04-23T23:53:13Z</time>
<desc>lat.=22.334360, lon.=103.778976, Alt.=2078.095703m. Speed=1.944000m/h.</desc>
<speed>0.540000</speed>
</trkpt>
<trkpt lat="22.334221" lon="103.779236">
<ele>2127.9</ele>
<time>2011-04-23T23:54:38Z</time>
<desc>lat.=22.334221, lon.=103.779236, Alt.=2088.283203m. Speed=1.044000m/h.</desc>
<speed>0.290000</speed>
</trkpt>
<trkpt lat="22.334354" lon="103.779686">
<ele>2132.7</ele>
<time>2011-04-23T23:56:33Z</time>
<desc>lat.=22.334354, lon.=103.779686, Alt.=2103.095703m. Speed=0.612000m/h.</desc>
<speed>0.170000</speed>
</trkpt>
<trkpt lat="22.333704" lon="103.779976">
<ele>2165.6</ele>
<time>2011-04-24T00:00:28Z</time>
<desc>lat.=22.333704, lon.=103.779976, Alt.=2148.220703m. Speed=2.016000m/h.</desc>
<speed>0.560000</speed>
</trkpt>
<trkpt lat="22.333595" lon="103.779755">
<ele>2168.2</ele>
<time>2011-04-24T00:01:08Z</time>
<desc>lat.=22.333595, lon.=103.779755, Alt.=2152.970703m. Speed=1.548000m/h.</desc>
<speed>0.430000</speed>
</trkpt>
<trkpt lat="22.332781" lon="103.779175">
<ele>2189.8</ele>
<time>2011-04-24T00:03:18Z</time>
<desc>lat.=22.332781, lon.=103.779175, Alt.=2165.970703m. Speed=2.916000m/h.</desc>
<speed>0.810000</speed>
</trkpt>
<trkpt lat="22.331463" lon="103.779236">
<ele>2215.0</ele>
<time>2011-04-24T00:06:18Z</time>
<desc>lat.=22.331463, lon.=103.779236, Alt.=2198.158203m. Speed=2.916000m/h.</desc>
<speed>0.810000</speed>
</trkpt>
<trkpt lat="22.331160" lon="103.779411">
<ele>2213.1</ele>
<time>2011-04-24T00:06:58Z</time>
<desc>lat.=22.331160, lon.=103.779411, Alt.=2206.220703m. Speed=2.484000m/h.</desc>
<speed>0.690000</speed>
</trkpt>
<trkpt lat="22.330833" lon="103.779976">
<ele>2220.2</ele>
<time>2011-04-24T00:08:18Z</time>
<desc>lat.=22.330833, lon.=103.779976, Alt.=2209.408203m. Speed=2.844000m/h.</desc>
<speed>0.790000</speed>
</trkpt>
<trkpt lat="22.330267" lon="103.780457">
<ele>2234.0</ele>
<time>2011-04-24T00:10:13Z</time>
<desc>lat.=22.330267, lon.=103.780457, Alt.=2212.095703m. Speed=1.116000m/h.</desc>
<speed>0.310000</speed>
</trkpt>
<trkpt lat="22.330334" lon="103.780678">
<ele>2236.3</ele>
<time>2011-04-24T00:15:03Z</time>
<desc>lat.=22.330334, lon.=103.780678, Alt.=2217.470703m. Speed=0.576000m/h.</desc>
<speed>0.160000</speed>
</trkpt>
<trkpt lat="22.330200" lon="103.780586">
<ele>2234.3</ele>
<time>2011-04-24T00:15:43Z</time>
<desc>lat.=22.330200, lon.=103.780586, Alt.=2221.408203m. Speed=0.000000m/h.</desc>
<speed>0.000000</speed>
</trkpt>
<trkpt lat="22.330179" lon="103.781303">
<ele>2240.0</ele>
<time>2011-04-24T00:17:18Z</time>
<desc>lat.=22.330179, lon.=103.781303, Alt.=2243.033203m. Speed=1.944000m/h.</desc>
<speed>0.540000</speed>
</trkpt>
<trkpt lat="22.330015" lon="103.781700">
<ele>2243.8</ele>
<time>2011-04-24T00:18:23Z</time>
<desc>lat.=22.330015, lon.=103.781700, Alt.=2249.783203m. Speed=1.548000m/h.</desc>
<speed>0.430000</speed>
</trkpt>
<trkpt lat="22.329430" lon="103.781425">
<ele>2252.1</ele>
<time>2011-04-24T00:20:18Z</time>
<desc>lat.=22.329430, lon.=103.781425, Alt.=2247.720703m. Speed=5.256000m/h.</desc>
<speed>1.460000</speed>
</trkpt>
<trkpt lat="22.328247" lon="103.781815">
<ele>2235.9</ele>
<time>2011-04-24T00:22:48Z</time>
<desc>lat.=22.328247, lon.=103.781815, Alt.=2233.033203m. Speed=2.484000m/h.</desc>
<speed>0.690000</speed>
</trkpt>
<trkpt lat="22.327959" lon="103.781471">
<ele>2242.9</ele>
<time>2011-04-24T00:26:08Z</time>
<desc>lat.=22.327959, lon.=103.781471, Alt.=2229.970703m. Speed=1.008000m/h.</desc>
<speed>0.280000</speed>
</trkpt>
<trkpt lat="22.327654" lon="103.781670">
<ele>2242.7</ele>
<time>2011-04-24T00:26:43Z</time>
<desc>lat.=22.327654, lon.=103.781670, Alt.=2229.595703m. Speed=0.720000m/h.</desc>
<speed>0.200000</speed>
</trkpt>
<trkpt lat="22.327507" lon="103.781342">
<ele>2252.2</ele>
<time>2011-04-24T00:28:18Z</time>
<desc>lat.=22.327507, lon.=103.781342, Alt.=2228.533203m. Speed=1.008000m/h.</desc>
<speed>0.280000</speed>
</trkpt>
<trkpt lat="22.326838" lon="103.780907">
<ele>2260.9</ele>
<time>2011-04-24T00:31:13Z</time>
<desc>lat.=22.326838, lon.=103.780907, Alt.=2266.908203m. Speed=2.412000m/h.</desc>
<speed>0.670000</speed>
</trkpt>
<trkpt lat="22.326719" lon="103.780243">
<ele>2282.1</ele>
<time>2011-04-24T00:32:38Z</time>
<desc>lat.=22.326719, lon.=103.780243, Alt.=2281.720703m. Speed=1.656000m/h.</desc>
<speed>0.460000</speed>
</trkpt>
<trkpt lat="22.326296" lon="103.779984">
<ele>2286.5</ele>
<time>2011-04-24T00:33:48Z</time>
<desc>lat.=22.326296, lon.=103.779984, Alt.=2293.033203m. Speed=3.276000m/h.</desc>
<speed>0.910000</speed>
</trkpt>
<trkpt lat="22.326208" lon="103.779823">
<ele>2294.9</ele>
<time>2011-04-24T00:34:08Z</time>
<desc>lat.=22.326208, lon.=103.779823, Alt.=2296.283203m. Speed=1.836000m/h.</desc>
<speed>0.510000</speed>
</trkpt>
<trkpt lat="22.326365" lon="103.779732">
<ele>2302.2</ele>
<time>2011-04-24T00:34:38Z</time>
<desc>lat.=22.326365, lon.=103.779732, Alt.=2307.158203m. Speed=2.448000m/h.</desc>
<speed>0.680000</speed>
</trkpt>
<trkpt lat="22.325958" lon="103.778648">
<ele>2312.3</ele>
<time>2011-04-24T00:37:08Z</time>
<desc>lat.=22.325958, lon.=103.778648, Alt.=2337.845703m. Speed=1.116000m/h.</desc>
<speed>0.310000</speed>
</trkpt>
<trkpt lat="22.326019" lon="103.777412">
<ele>2320.1</ele>
<time>2011-04-24T00:39:48Z</time>
<desc>lat.=22.326019, lon.=103.777412, Alt.=2338.220703m. Speed=2.592000m/h.</desc>
<speed>0.720000</speed>
</trkpt>
<trkpt lat="22.326370" lon="103.776817">
<ele>2325.0</ele>
<time>2011-04-24T00:40:48Z</time>
<desc>lat.=22.326370, lon.=103.776817, Alt.=2333.095703m. Speed=2.412000m/h.</desc>
<speed>0.670000</speed>
</trkpt>
<trkpt lat="22.326653" lon="103.776779">
<ele>2327.5</ele>
<time>2011-04-24T00:41:33Z</time>
<desc>lat.=22.326653, lon.=103.776779, Alt.=2346.345703m. Speed=1.872000m/h.</desc>
<speed>0.520000</speed>
</trkpt>
<trkpt lat="22.326939" lon="103.776436">
<ele>2340.1</ele>
<time>2011-04-24T00:42:28Z</time>
<desc>lat.=22.326939, lon.=103.776436, Alt.=2351.783203m. Speed=3.672000m/h.</desc>
<speed>1.020000</speed>
</trkpt>
<trkpt lat="22.327019" lon="103.774757">
<ele>2361.8</ele>
<time>2011-04-24T00:46:18Z</time>
<desc>lat.=22.327019, lon.=103.774757, Alt.=2365.783203m. Speed=0.108000m/h.</desc>
<speed>0.030000</speed>
</trkpt>
<trkpt lat="22.326544" lon="103.773254">
<ele>2353.6</ele>
<time>2011-04-24T00:58:33Z</time>
<desc>lat.=22.326544, lon.=103.773254, Alt.=2364.158203m. Speed=3.204000m/h.</desc>
<speed>0.890000</speed>
</trkpt>
<trkpt lat="22.326637" lon="103.772652">
<ele>2362.0</ele>
<time>2011-04-24T00:59:23Z</time>
<desc>lat.=22.326637, lon.=103.772652, Alt.=2354.970703m. Speed=3.348000m/h.</desc>
<speed>0.930000</speed>
</trkpt>
<trkpt lat="22.326185" lon="103.772728">
<ele>2360.3</ele>
<time>2011-04-24T01:01:03Z</time>
<desc>lat.=22.326185, lon.=103.772728, Alt.=2364.595703m. Speed=1.440000m/h.</desc>
<speed>0.400000</speed>
</trkpt>
<trkpt lat="22.326025" lon="103.772507">
<ele>2375.2</ele>
<time>2011-04-24T01:02:03Z</time>
<desc>lat.=22.326025, lon.=103.772507, Alt.=2371.283203m. Speed=0.396000m/h.</desc>
<speed>0.110000</speed>
</trkpt>
<trkpt lat="22.325439" lon="103.772606">
<ele>2372.0</ele>
<time>2011-04-24T01:03:13Z</time>
<desc>lat.=22.325439, lon.=103.772606, Alt.=2376.720703m. Speed=3.888000m/h.</desc>
<speed>1.080000</speed>
</trkpt>
<trkpt lat="22.325182" lon="103.772362">
<ele>2383.8</ele>
<time>2011-04-24T01:03:58Z</time>
<desc>lat.=22.325182, lon.=103.772362, Alt.=2378.845703m. Speed=1.548000m/h.</desc>
<speed>0.430000</speed>
</trkpt>
<trkpt lat="22.324802" lon="103.772514">
<ele>2383.6</ele>
<time>2011-04-24T01:05:18Z</time>
<desc>lat.=22.324802, lon.=103.772514, Alt.=2393.845703m. Speed=3.600000m/h.</desc>
<speed>1.000000</speed>
</trkpt>
<trkpt lat="22.324734" lon="103.772255">
<ele>2394.4</ele>
<time>2011-04-24T01:05:53Z</time>
<desc>lat.=22.324734, lon.=103.772255, Alt.=2399.033203m. Speed=5.400000m/h.</desc>
<speed>1.500000</speed>
</trkpt>
<trkpt lat="22.324160" lon="103.771652">
<ele>2408.4</ele>
<time>2011-04-24T01:07:23Z</time>
<desc>lat.=22.324160, lon.=103.771652, Alt.=2404.033203m. Speed=1.800000m/h.</desc>
<speed>0.500000</speed>
</trkpt>
<trkpt lat="22.324175" lon="103.771446">
<ele>2414.5</ele>
<time>2011-04-24T01:07:53Z</time>
<desc>lat.=22.324175, lon.=103.771446, Alt.=2408.595703m. Speed=1.188000m/h.</desc>
<speed>0.330000</speed>
</trkpt>
<trkpt lat="22.323534" lon="103.771408">
<ele>2429.7</ele>
<time>2011-04-24T01:19:13Z</time>
<desc>lat.=22.323534, lon.=103.771408, Alt.=2441.658203m. Speed=1.332000m/h.</desc>
<speed>0.370000</speed>
</trkpt>
<trkpt lat="22.323387" lon="103.771164">
<ele>2448.1</ele>
<time>2011-04-24T01:20:23Z</time>
<desc>lat.=22.323387, lon.=103.771164, Alt.=2453.345703m. Speed=1.620000m/h.</desc>
<speed>0.450000</speed>
</trkpt>
<trkpt lat="22.322721" lon="103.770927">
<ele>2477.2</ele>
<time>2011-04-24T01:23:03Z</time>
<desc>lat.=22.322721, lon.=103.770927, Alt.=2468.533203m. Speed=5.400000m/h.</desc>
<speed>1.500000</speed>
</trkpt>
<trkpt lat="22.322546" lon="103.770668">
<ele>2495.1</ele>
<time>2011-04-24T01:23:58Z</time>
<desc>lat.=22.322546, lon.=103.770668, Alt.=2479.595703m. Speed=1.296000m/h.</desc>
<speed>0.360000</speed>
</trkpt>
<trkpt lat="22.322487" lon="103.770981">
<ele>2494.8</ele>
<time>2011-04-24T01:25:33Z</time>
<desc>lat.=22.322487, lon.=103.770981, Alt.=2483.158203m. Speed=0.828000m/h.</desc>
<speed>0.230000</speed>
</trkpt>
<trkpt lat="22.322290" lon="103.770782">
<ele>2510.5</ele>
<time>2011-04-24T01:27:43Z</time>
<desc>lat.=22.322290, lon.=103.770782, Alt.=2503.095703m. Speed=0.468000m/h.</desc>
<speed>0.130000</speed>
</trkpt>
<trkpt lat="22.321243" lon="103.770973">
<ele>2549.5</ele>
<time>2011-04-24T01:33:08Z</time>
<desc>lat.=22.321243, lon.=103.770973, Alt.=2558.720703m. Speed=2.160000m/h.</desc>
<speed>0.600000</speed>
</trkpt>
<trkpt lat="22.320660" lon="103.770714">
<ele>2572.4</ele>
<time>2011-04-24T01:35:18Z</time>
<desc>lat.=22.320660, lon.=103.770714, Alt.=2575.283203m. Speed=2.916000m/h.</desc>
<speed>0.810000</speed>
</trkpt>
<trkpt lat="22.320606" lon="103.770264">
<ele>2581.1</ele>
<time>2011-04-24T01:36:28Z</time>
<desc>lat.=22.320606, lon.=103.770264, Alt.=2575.908203m. Speed=0.216000m/h.</desc>
<speed>0.060000</speed>
</trkpt>
<trkpt lat="22.320255" lon="103.769707">
<ele>2609.1</ele>
<time>2011-04-24T01:50:13Z</time>
<desc>lat.=22.320255, lon.=103.769707, Alt.=2606.533203m. Speed=0.792000m/h.</desc>
<speed>0.220000</speed>
</trkpt>
<trkpt lat="22.320099" lon="103.769806">
<ele>2618.3</ele>
<time>2011-04-24T01:51:43Z</time>
<desc>lat.=22.320099, lon.=103.769806, Alt.=2607.658203m. Speed=1.620000m/h.</desc>
<speed>0.450000</speed>
</trkpt>
<trkpt lat="22.320246" lon="103.769913">
<ele>2607.7</ele>
<time>2011-04-24T01:53:03Z</time>
<desc>lat.=22.320246, lon.=103.769913, Alt.=2603.658203m. Speed=2.412000m/h.</desc>
<speed>0.670000</speed>
</trkpt>
<trkpt lat="22.320084" lon="103.769928">
<ele>2613.6</ele>
<time>2011-04-24T01:54:23Z</time>
<desc>lat.=22.320084, lon.=103.769928, Alt.=2606.533203m. Speed=0.432000m/h.</desc>
<speed>0.120000</speed>
</trkpt>
<trkpt lat="22.319967" lon="103.769608">
<ele>2631.3</ele>
<time>2011-04-24T01:56:58Z</time>
<desc>lat.=22.319967, lon.=103.769608, Alt.=2624.283203m. Speed=0.360000m/h.</desc>
<speed>0.100000</speed>
</trkpt>
<trkpt lat="22.319662" lon="103.769371">
<ele>2642.3</ele>
<time>2011-04-24T02:00:33Z</time>
<desc>lat.=22.319662, lon.=103.769371, Alt.=2647.158203m. Speed=1.008000m/h.</desc>
<speed>0.280000</speed>
</trkpt>
<trkpt lat="22.319662" lon="103.768814">
<ele>2648.2</ele>
<time>2011-04-24T02:02:18Z</time>
<desc>lat.=22.319662, lon.=103.768814, Alt.=2654.720703m. Speed=1.872000m/h.</desc>
<speed>0.520000</speed>
</trkpt>
<trkpt lat="22.319166" lon="103.768074">
<ele>2664.1</ele>
<time>2011-04-24T02:06:23Z</time>
<desc>lat.=22.319166, lon.=103.768074, Alt.=2669.095703m. Speed=3.384000m/h.</desc>
<speed>0.940000</speed>
</trkpt>
<trkpt lat="22.319027" lon="103.767570">
<ele>2682.4</ele>
<time>2011-04-24T02:16:18Z</time>
<desc>lat.=22.319027, lon.=103.767570, Alt.=2683.783203m. Speed=0.324000m/h.</desc>
<speed>0.090000</speed>
</trkpt>
<trkpt lat="22.318548" lon="103.767418">
<ele>2701.9</ele>
<time>2011-04-24T02:19:13Z</time>
<desc>lat.=22.318548, lon.=103.767418, Alt.=2700.720703m. Speed=0.324000m/h.</desc>
<speed>0.090000</speed>
</trkpt>
<trkpt lat="22.318371" lon="103.767197">
<ele>2714.5</ele>
<time>2011-04-24T02:21:03Z</time>
<desc>lat.=22.318371, lon.=103.767197, Alt.=2718.533203m. Speed=1.620000m/h.</desc>
<speed>0.450000</speed>
</trkpt>
<trkpt lat="22.317497" lon="103.767082">
<ele>2753.4</ele>
<time>2011-04-24T02:25:38Z</time>
<desc>lat.=22.317497, lon.=103.767082, Alt.=2756.908203m. Speed=1.764000m/h.</desc>
<speed>0.490000</speed>
</trkpt>
<trkpt lat="22.317038" lon="103.766701">
<ele>2787.8</ele>
<time>2011-04-24T02:28:33Z</time>
<desc>lat.=22.317038, lon.=103.766701, Alt.=2785.158203m. Speed=2.016000m/h.</desc>
<speed>0.560000</speed>
</trkpt>
<trkpt lat="22.316463" lon="103.766518">
<ele>2785.5</ele>
<time>2011-04-24T02:31:43Z</time>
<desc>lat.=22.316463, lon.=103.766518, Alt.=2797.658203m. Speed=3.240000m/h.</desc>
<speed>0.900000</speed>
</trkpt>
<trkpt lat="22.315998" lon="103.765892">
<ele>2787.3</ele>
<time>2011-04-24T02:33:23Z</time>
<desc>lat.=22.315998, lon.=103.765892, Alt.=2784.595703m. Speed=1.872000m/h.</desc>
<speed>0.520000</speed>
</trkpt>
<trkpt lat="22.315680" lon="103.765823">
<ele>2785.0</ele>
<time>2011-04-24T02:34:08Z</time>
<desc>lat.=22.315680, lon.=103.765823, Alt.=2783.783203m. Speed=2.304000m/h.</desc>
<speed>0.640000</speed>
</trkpt>
<trkpt lat="22.315325" lon="103.766037">
<ele>2783.9</ele>
<time>2011-04-24T02:34:53Z</time>
<desc>lat.=22.315325, lon.=103.766037, Alt.=2788.033203m. Speed=1.800000m/h.</desc>
<speed>0.500000</speed>
</trkpt>
<trkpt lat="22.314976" lon="103.765633">
<ele>2781.3</ele>
<time>2011-04-24T02:36:28Z</time>
<desc>lat.=22.314976, lon.=103.765633, Alt.=2783.908203m. Speed=4.248000m/h.</desc>
<speed>1.180000</speed>
</trkpt>
<trkpt lat="22.314579" lon="103.765755">
<ele>2773.1</ele>
<time>2011-04-24T02:37:43Z</time>
<desc>lat.=22.314579, lon.=103.765755, Alt.=2782.533203m. Speed=0.972000m/h.</desc>
<speed>0.270000</speed>
</trkpt>
<trkpt lat="22.314358" lon="103.765480">
<ele>2780.4</ele>
<time>2011-04-24T02:38:33Z</time>
<desc>lat.=22.314358, lon.=103.765480, Alt.=2783.595703m. Speed=2.340000m/h.</desc>
<speed>0.650000</speed>
</trkpt>
<trkpt lat="22.314659" lon="103.765938">
<ele>2772.6</ele>
<time>2011-04-24T02:39:33Z</time>
<desc>lat.=22.314659, lon.=103.765938, Alt.=2784.033203m. Speed=1.908000m/h.</desc>
<speed>0.530000</speed>
</trkpt>
<trkpt lat="22.314829" lon="103.765823">
<ele>2778.0</ele>
<time>2011-04-24T02:40:03Z</time>
<desc>lat.=22.314829, lon.=103.765823, Alt.=2784.158203m. Speed=1.440000m/h.</desc>
<speed>0.400000</speed>
</trkpt>
<trkpt lat="22.314680" lon="103.765854">
<ele>2774.3</ele>
<time>2011-04-24T02:41:58Z</time>
<desc>lat.=22.314680, lon.=103.765854, Alt.=2783.408203m. Speed=0.252000m/h.</desc>
<speed>0.070000</speed>
</trkpt>
<trkpt lat="22.314634" lon="103.765610">
<ele>2775.7</ele>
<time>2011-04-24T02:42:28Z</time>
<desc>lat.=22.314634, lon.=103.765610, Alt.=2783.345703m. Speed=1.296000m/h.</desc>
<speed>0.360000</speed>
</trkpt>
<trkpt lat="22.314785" lon="103.765854">
<ele>2776.8</ele>
<time>2011-04-24T02:44:33Z</time>
<desc>lat.=22.314785, lon.=103.765854, Alt.=2784.158203m. Speed=1.332000m/h.</desc>
<speed>0.370000</speed>
</trkpt>
<trkpt lat="22.314631" lon="103.765739">
<ele>2774.3</ele>
<time>2011-04-24T02:45:43Z</time>
<desc>lat.=22.314631, lon.=103.765739, Alt.=2788.220703m. Speed=0.288000m/h.</desc>
<speed>0.080000</speed>
</trkpt>
<trkpt lat="22.314955" lon="103.765602">
<ele>2781.1</ele>
<time>2011-04-24T02:47:28Z</time>
<desc>lat.=22.314955, lon.=103.765602, Alt.=2792.908203m. Speed=0.720000m/h.</desc>
<speed>0.200000</speed>
</trkpt>
<trkpt lat="22.314873" lon="103.765831">
<ele>2778.9</ele>
<time>2011-04-24T02:48:53Z</time>
<desc>lat.=22.314873, lon.=103.765831, Alt.=2796.470703m. Speed=0.468000m/h.</desc>
<speed>0.130000</speed>
</trkpt>
<trkpt lat="22.314770" lon="103.765610">
<ele>2778.2</ele>
<time>2011-04-24T02:49:48Z</time>
<desc>lat.=22.314770, lon.=103.765610, Alt.=2800.283203m. Speed=1.404000m/h.</desc>
<speed>0.390000</speed>
</trkpt>
<trkpt lat="22.314627" lon="103.765694">
<ele>2774.7</ele>
<time>2011-04-24T02:50:28Z</time>
<desc>lat.=22.314627, lon.=103.765694, Alt.=2796.970703m. Speed=0.252000m/h.</desc>
<speed>0.070000</speed>
</trkpt>
<trkpt lat="22.314766" lon="103.765678">
<ele>2777.6</ele>
<time>2011-04-24T02:50:58Z</time>
<desc>lat.=22.314766, lon.=103.765678, Alt.=2794.720703m. Speed=1.296000m/h.</desc>
<speed>0.360000</speed>
</trkpt>
<trkpt lat="22.314568" lon="103.765572">
<ele>2775.2</ele>
<time>2011-04-24T02:52:48Z</time>
<desc>lat.=22.314568, lon.=103.765572, Alt.=2794.720703m. Speed=1.080000m/h.</desc>
<speed>0.300000</speed>
</trkpt>
<trkpt lat="22.314672" lon="103.765518">
<ele>2779.1</ele>
<time>2011-04-24T02:53:28Z</time>
<desc>lat.=22.314672, lon.=103.765518, Alt.=2792.533203m. Speed=0.972000m/h.</desc>
<speed>0.270000</speed>
</trkpt>
<trkpt lat="22.314461" lon="103.765472">
<ele>2780.8</ele>
<time>2011-04-24T02:55:33Z</time>
<desc>lat.=22.314461, lon.=103.765472, Alt.=2793.095703m. Speed=0.504000m/h.</desc>
<speed>0.140000</speed>
</trkpt>
<trkpt lat="22.314806" lon="103.765625">
<ele>2778.7</ele>
<time>2011-04-24T02:56:33Z</time>
<desc>lat.=22.314806, lon.=103.765625, Alt.=2792.658203m. Speed=2.664000m/h.</desc>
<speed>0.740000</speed>
</trkpt>
<trkpt lat="22.314627" lon="103.765762">
<ele>2774.0</ele>
<time>2011-04-24T02:57:33Z</time>
<desc>lat.=22.314627, lon.=103.765762, Alt.=2792.220703m. Speed=1.188000m/h.</desc>
<speed>0.330000</speed>
</trkpt>
<trkpt lat="22.314411" lon="103.765404">
<ele>2785.5</ele>
<time>2011-04-24T02:58:28Z</time>
<desc>lat.=22.314411, lon.=103.765404, Alt.=2790.720703m. Speed=3.780000m/h.</desc>
<speed>1.050000</speed>
</trkpt>
<trkpt lat="22.314413" lon="103.765709">
<ele>2771.5</ele>
<time>2011-04-24T02:59:33Z</time>
<desc>lat.=22.314413, lon.=103.765709, Alt.=2793.658203m. Speed=1.152000m/h.</desc>
<speed>0.320000</speed>
</trkpt>
<trkpt lat="22.314581" lon="103.765480">
<ele>2780.1</ele>
<time>2011-04-24T03:01:28Z</time>
<desc>lat.=22.314581, lon.=103.765480, Alt.=2791.658203m. Speed=1.800000m/h.</desc>
<speed>0.500000</speed>
</trkpt>
<trkpt lat="22.314686" lon="103.765617">
<ele>2776.6</ele>
<time>2011-04-24T03:01:58Z</time>
<desc>lat.=22.314686, lon.=103.765617, Alt.=2791.908203m. Speed=1.728000m/h.</desc>
<speed>0.480000</speed>
</trkpt>
<trkpt lat="22.314659" lon="103.765800">
<ele>2774.3</ele>
<time>2011-04-24T03:02:23Z</time>
<desc>lat.=22.314659, lon.=103.765800, Alt.=2788.908203m. Speed=1.008000m/h.</desc>
<speed>0.280000</speed>
</trkpt>
<trkpt lat="22.314528" lon="103.765602">
<ele>2774.6</ele>
<time>2011-04-24T03:02:58Z</time>
<desc>lat.=22.314528, lon.=103.765602, Alt.=2789.658203m. Speed=1.836000m/h.</desc>
<speed>0.510000</speed>
</trkpt>
<trkpt lat="22.314606" lon="103.765846">
<ele>2772.6</ele>
<time>2011-04-24T03:05:03Z</time>
<desc>lat.=22.314606, lon.=103.765846, Alt.=2794.783203m. Speed=0.432000m/h.</desc>
<speed>0.120000</speed>
</trkpt>
<trkpt lat="22.314646" lon="103.765709">
<ele>2774.9</ele>
<time>2011-04-24T03:06:43Z</time>
<desc>lat.=22.314646, lon.=103.765709, Alt.=2799.908203m. Speed=1.116000m/h.</desc>
<speed>0.310000</speed>
</trkpt>
<trkpt lat="22.314800" lon="103.765762">
<ele>2777.7</ele>
<time>2011-04-24T03:07:03Z</time>
<desc>lat.=22.314800, lon.=103.765762, Alt.=2798.720703m. Speed=1.188000m/h.</desc>
<speed>0.330000</speed>
</trkpt>
<trkpt lat="22.314754" lon="103.765587">
<ele>2778.0</ele>
<time>2011-04-24T03:08:13Z</time>
<desc>lat.=22.314754, lon.=103.765587, Alt.=2794.220703m. Speed=2.088000m/h.</desc>
<speed>0.580000</speed>
</trkpt>
<trkpt lat="22.314657" lon="103.765678">
<ele>2775.5</ele>
<time>2011-04-24T03:08:33Z</time>
<desc>lat.=22.314657, lon.=103.765678, Alt.=2788.720703m. Speed=3.096000m/h.</desc>
<speed>0.860000</speed>
</trkpt>
<trkpt lat="22.313688" lon="103.765343">
<ele>2811.0</ele>
<time>2011-04-24T03:10:58Z</time>
<desc>lat.=22.313688, lon.=103.765343, Alt.=2780.220703m. Speed=0.432000m/h.</desc>
<speed>0.120000</speed>
</trkpt>
<trkpt lat="22.313633" lon="103.765602">
<ele>2802.5</ele>
<time>2011-04-24T03:12:18Z</time>
<desc>lat.=22.313633, lon.=103.765602, Alt.=2799.783203m. Speed=0.756000m/h.</desc>
<speed>0.210000</speed>
</trkpt>
<trkpt lat="22.313185" lon="103.765266">
<ele>2844.8</ele>
<time>2011-04-24T03:14:53Z</time>
<desc>lat.=22.313185, lon.=103.765266, Alt.=2816.158203m. Speed=3.996000m/h.</desc>
<speed>1.110000</speed>
</trkpt>
<trkpt lat="22.313000" lon="103.765350">
<ele>2855.2</ele>
<time>2011-04-24T03:15:23Z</time>
<desc>lat.=22.313000, lon.=103.765350, Alt.=2818.470703m. Speed=2.232000m/h.</desc>
<speed>0.620000</speed>
</trkpt>
<trkpt lat="22.313000" lon="103.765587">
<ele>2849.7</ele>
<time>2011-04-24T03:16:23Z</time>
<desc>lat.=22.313000, lon.=103.765587, Alt.=2834.845703m. Speed=2.952000m/h.</desc>
<speed>0.820000</speed>
</trkpt>
<trkpt lat="22.312792" lon="103.765816">
<ele>2865.1</ele>
<time>2011-04-24T03:17:38Z</time>
<desc>lat.=22.312792, lon.=103.765816, Alt.=2840.720703m. Speed=0.648000m/h.</desc>
<speed>0.180000</speed>
</trkpt>
<trkpt lat="22.312641" lon="103.766701">
<ele>2854.2</ele>
<time>2011-04-24T03:19:38Z</time>
<desc>lat.=22.312641, lon.=103.766701, Alt.=2849.470703m. Speed=2.160000m/h.</desc>
<speed>0.600000</speed>
</trkpt>
<trkpt lat="22.312000" lon="103.766678">
<ele>2897.5</ele>
<time>2011-04-24T03:21:33Z</time>
<desc>lat.=22.312000, lon.=103.766678, Alt.=2848.970703m. Speed=3.024000m/h.</desc>
<speed>0.840000</speed>
</trkpt>
<trkpt lat="22.311993" lon="103.767502">
<ele>2894.7</ele>
<time>2011-04-24T03:23:13Z</time>
<desc>lat.=22.311993, lon.=103.767502, Alt.=2865.408203m. Speed=1.944000m/h.</desc>
<speed>0.540000</speed>
</trkpt>
<trkpt lat="22.311649" lon="103.767731">
<ele>2908.0</ele>
<time>2011-04-24T03:24:08Z</time>
<desc>lat.=22.311649, lon.=103.767731, Alt.=2866.345703m. Speed=2.484000m/h.</desc>
<speed>0.690000</speed>
</trkpt>
<trkpt lat="22.311604" lon="103.768082">
<ele>2897.4</ele>
<time>2011-04-24T03:24:43Z</time>
<desc>lat.=22.311604, lon.=103.768082, Alt.=2873.845703m. Speed=3.924000m/h.</desc>
<speed>1.090000</speed>
</trkpt>
<trkpt lat="22.311134" lon="103.768288">
<ele>2906.3</ele>
<time>2011-04-24T03:25:58Z</time>
<desc>lat.=22.311134, lon.=103.768288, Alt.=2884.470703m. Speed=1.764000m/h.</desc>
<speed>0.490000</speed>
</trkpt>
<trkpt lat="22.310650" lon="103.769012">
<ele>2900.5</ele>
<time>2011-04-24T03:27:28Z</time>
<desc>lat.=22.310650, lon.=103.769012, Alt.=2874.970703m. Speed=4.248000m/h.</desc>
<speed>1.180000</speed>
</trkpt>
<trkpt lat="22.310316" lon="103.768990">
<ele>2911.8</ele>
<time>2011-04-24T03:28:18Z</time>
<desc>lat.=22.310316, lon.=103.768990, Alt.=2873.158203m. Speed=1.584000m/h.</desc>
<speed>0.440000</speed>
</trkpt>
<trkpt lat="22.309805" lon="103.769226">
<ele>2922.6</ele>
<time>2011-04-24T03:31:58Z</time>
<desc>lat.=22.309805, lon.=103.769226, Alt.=2883.158203m. Speed=0.360000m/h.</desc>
<speed>0.100000</speed>
</trkpt>
<trkpt lat="22.310059" lon="103.769241">
<ele>2919.8</ele>
<time>2011-04-24T03:35:18Z</time>
<desc>lat.=22.310059, lon.=103.769241, Alt.=2892.970703m. Speed=0.396000m/h.</desc>
<speed>0.110000</speed>
</trkpt>
<trkpt lat="22.309988" lon="103.769119">
<ele>2920.3</ele>
<time>2011-04-24T03:37:48Z</time>
<desc>lat.=22.309988, lon.=103.769119, Alt.=2901.908203m. Speed=0.144000m/h.</desc>
<speed>0.040000</speed>
</trkpt>
<trkpt lat="22.310207" lon="103.771759">
<ele>2944.6</ele>
<time>2011-04-24T03:45:53Z</time>
<desc>lat.=22.310207, lon.=103.771759, Alt.=2946.283203m. Speed=0.324000m/h.</desc>
<speed>0.090000</speed>
</trkpt>
<trkpt lat="22.309233" lon="103.772675">
<ele>2871.4</ele>
<time>2011-04-24T03:54:23Z</time>
<desc>lat.=22.309233, lon.=103.772675, Alt.=2902.345703m. Speed=1.224000m/h.</desc>
<speed>0.340000</speed>
</trkpt>
<trkpt lat="22.308886" lon="103.772636">
<ele>2869.4</ele>
<time>2011-04-24T03:56:33Z</time>
<desc>lat.=22.308886, lon.=103.772636, Alt.=2892.720703m. Speed=1.908000m/h.</desc>
<speed>0.530000</speed>
</trkpt>
<trkpt lat="22.308661" lon="103.773064">
<ele>2855.6</ele>
<time>2011-04-24T03:58:43Z</time>
<desc>lat.=22.308661, lon.=103.773064, Alt.=2869.658203m. Speed=1.512000m/h.</desc>
<speed>0.420000</speed>
</trkpt>
<trkpt lat="22.308413" lon="103.773117">
<ele>2862.7</ele>
<time>2011-04-24T04:00:08Z</time>
<desc>lat.=22.308413, lon.=103.773117, Alt.=2858.408203m. Speed=1.584000m/h.</desc>
<speed>0.440000</speed>
</trkpt>
<trkpt lat="22.308224" lon="103.772919">
<ele>2876.5</ele>
<time>2011-04-24T04:01:08Z</time>
<desc>lat.=22.308224, lon.=103.772919, Alt.=2859.408203m. Speed=1.260000m/h.</desc>
<speed>0.350000</speed>
</trkpt>
<trkpt lat="22.308153" lon="103.773018">
<ele>2878.2</ele>
<time>2011-04-24T04:01:23Z</time>
<desc>lat.=22.308153, lon.=103.773018, Alt.=2861.158203m. Speed=2.952000m/h.</desc>
<speed>0.820000</speed>
</trkpt>
<trkpt lat="22.308313" lon="103.773254">
<ele>2865.8</ele>
<time>2011-04-24T04:02:18Z</time>
<desc>lat.=22.308313, lon.=103.773254, Alt.=2864.970703m. Speed=3.024000m/h.</desc>
<speed>0.840000</speed>
</trkpt>
<trkpt lat="22.308023" lon="103.773544">
<ele>2884.2</ele>
<time>2011-04-24T04:03:23Z</time>
<desc>lat.=22.308023, lon.=103.773544, Alt.=2864.158203m. Speed=2.196000m/h.</desc>
<speed>0.610000</speed>
</trkpt>
<trkpt lat="22.308207" lon="103.773766">
<ele>2869.6</ele>
<time>2011-04-24T04:04:43Z</time>
<desc>lat.=22.308207, lon.=103.773766, Alt.=2861.158203m. Speed=0.828000m/h.</desc>
<speed>0.230000</speed>
</trkpt>
<trkpt lat="22.307959" lon="103.773849">
<ele>2895.0</ele>
<time>2011-04-24T04:05:23Z</time>
<desc>lat.=22.307959, lon.=103.773849, Alt.=2859.908203m. Speed=1.908000m/h.</desc>
<speed>0.530000</speed>
</trkpt>
<trkpt lat="22.307997" lon="103.774147">
<ele>2895.6</ele>
<time>2011-04-24T04:11:13Z</time>
<desc>lat.=22.307997, lon.=103.774147, Alt.=2875.970703m. Speed=0.936000m/h.</desc>
<speed>0.260000</speed>
</trkpt>
<trkpt lat="22.307663" lon="103.774406">
<ele>2935.2</ele>
<time>2011-04-24T04:13:08Z</time>
<desc>lat.=22.307663, lon.=103.774406, Alt.=2888.033203m. Speed=0.648000m/h.</desc>
<speed>0.180000</speed>
</trkpt>
<trkpt lat="22.307577" lon="103.774620">
<ele>2946.4</ele>
<time>2011-04-24T04:14:33Z</time>
<desc>lat.=22.307577, lon.=103.774620, Alt.=2898.095703m. Speed=1.332000m/h.</desc>
<speed>0.370000</speed>
</trkpt>
<trkpt lat="22.307735" lon="103.774712">
<ele>2931.1</ele>
<time>2011-04-24T04:14:58Z</time>
<desc>lat.=22.307735, lon.=103.774712, Alt.=2900.533203m. Speed=1.008000m/h.</desc>
<speed>0.280000</speed>
</trkpt>
<trkpt lat="22.307663" lon="103.774620">
<ele>2937.8</ele>
<time>2011-04-24T04:15:28Z</time>
<desc>lat.=22.307663, lon.=103.774620, Alt.=2902.470703m. Speed=0.576000m/h.</desc>
<speed>0.160000</speed>
</trkpt>
<trkpt lat="22.307440" lon="103.774803">
<ele>2959.8</ele>
<time>2011-04-24T04:17:28Z</time>
<desc>lat.=22.307440, lon.=103.774803, Alt.=2910.908203m. Speed=2.304000m/h.</desc>
<speed>0.640000</speed>
</trkpt>
<trkpt lat="22.307547" lon="103.775009">
<ele>2948.2</ele>
<time>2011-04-24T04:18:48Z</time>
<desc>lat.=22.307547, lon.=103.775009, Alt.=2926.470703m. Speed=0.360000m/h.</desc>
<speed>0.100000</speed>
</trkpt>
<trkpt lat="22.307270" lon="103.775192">
<ele>2968.9</ele>
<time>2011-04-24T04:20:28Z</time>
<desc>lat.=22.307270, lon.=103.775192, Alt.=2942.658203m. Speed=0.972000m/h.</desc>
<speed>0.270000</speed>
</trkpt>
<trkpt lat="22.307114" lon="103.775696">
<ele>2964.5</ele>
<time>2011-04-24T04:21:58Z</time>
<desc>lat.=22.307114, lon.=103.775696, Alt.=2961.595703m. Speed=0.648000m/h.</desc>
<speed>0.180000</speed>
</trkpt>
<trkpt lat="22.306692" lon="103.774712">
<ele>3006.7</ele>
<time>2011-04-24T04:31:43Z</time>
<desc>lat.=22.306692, lon.=103.774712, Alt.=3010.533203m. Speed=2.232000m/h.</desc>
<speed>0.620000</speed>
</trkpt>
<trkpt lat="22.306398" lon="103.774620">
<ele>3018.9</ele>
<time>2011-04-24T04:32:23Z</time>
<desc>lat.=22.306398, lon.=103.774620, Alt.=3014.220703m. Speed=1.512000m/h.</desc>
<speed>0.420000</speed>
</trkpt>
<trkpt lat="22.305359" lon="103.775124">
<ele>3044.2</ele>
<time>2011-04-24T04:36:28Z</time>
<desc>lat.=22.305359, lon.=103.775124, Alt.=3036.845703m. Speed=0.144000m/h.</desc>
<speed>0.040000</speed>
</trkpt>
<trkpt lat="22.304991" lon="103.775101">
<ele>3058.6</ele>
<time>2011-04-24T04:38:08Z</time>
<desc>lat.=22.304991, lon.=103.775101, Alt.=3051.095703m. Speed=3.780000m/h.</desc>
<speed>1.050000</speed>
</trkpt>
<trkpt lat="22.304543" lon="103.775322">
<ele>3073.9</ele>
<time>2011-04-24T04:39:53Z</time>
<desc>lat.=22.304543, lon.=103.775322, Alt.=3069.408203m. Speed=2.916000m/h.</desc>
<speed>0.810000</speed>
</trkpt>
<trkpt lat="22.304230" lon="103.775246">
<ele>3086.8</ele>
<time>2011-04-24T04:41:58Z</time>
<desc>lat.=22.304230, lon.=103.775246, Alt.=3070.970703m. Speed=0.216000m/h.</desc>
<speed>0.060000</speed>
</trkpt>
<trkpt lat="22.303593" lon="103.775528">
<ele>3107.6</ele>
<time>2011-04-24T04:47:33Z</time>
<desc>lat.=22.303593, lon.=103.775528, Alt.=3115.720703m. Speed=0.432000m/h.</desc>
<speed>0.120000</speed>
</trkpt>
<trkpt lat="22.303408" lon="103.775124">
<ele>3108.7</ele>
<time>2011-04-24T04:50:33Z</time>
<desc>lat.=22.303408, lon.=103.775124, Alt.=3127.470703m. Speed=0.000000m/h.</desc>
<speed>0.000000</speed>
</trkpt>
<trkpt lat="22.303192" lon="103.775276">
<ele>3104.9</ele>
<time>2011-04-24T04:51:38Z</time>
<desc>lat.=22.303192, lon.=103.775276, Alt.=3140.595703m. Speed=1.368000m/h.</desc>
<speed>0.380000</speed>
</trkpt>
<trkpt lat="22.303463" lon="103.775223">
<ele>3109.4</ele>
<time>2011-04-24T05:08:23Z</time>
<desc>lat.=22.303463, lon.=103.775223, Alt.=3148.283203m. Speed=1.800000m/h.</desc>
<speed>0.500000</speed>
</trkpt>
<trkpt lat="22.303677" lon="103.775604">
<ele>3106.5</ele>
<time>2011-04-24T05:11:48Z</time>
<desc>lat.=22.303677, lon.=103.775604, Alt.=3128.095703m. Speed=0.072000m/h.</desc>
<speed>0.020000</speed>
</trkpt>
<trkpt lat="22.303831" lon="103.775429">
<ele>3107.6</ele>
<time>2011-04-24T05:13:13Z</time>
<desc>lat.=22.303831, lon.=103.775429, Alt.=3122.283203m. Speed=1.800000m/h.</desc>
<speed>0.500000</speed>
</trkpt>
<trkpt lat="22.304169" lon="103.775436">
<ele>3089.6</ele>
<time>2011-04-24T05:14:28Z</time>
<desc>lat.=22.304169, lon.=103.775436, Alt.=3116.408203m. Speed=2.232000m/h.</desc>
<speed>0.620000</speed>
</trkpt>
<trkpt lat="22.304295" lon="103.775253">
<ele>3082.9</ele>
<time>2011-04-24T05:16:03Z</time>
<desc>lat.=22.304295, lon.=103.775253, Alt.=3096.658203m. Speed=2.268000m/h.</desc>
<speed>0.630000</speed>
</trkpt>
<trkpt lat="22.304514" lon="103.775337">
<ele>3074.8</ele>
<time>2011-04-24T05:16:23Z</time>
<desc>lat.=22.304514, lon.=103.775337, Alt.=3086.158203m. Speed=3.024000m/h.</desc>
<speed>0.840000</speed>
</trkpt>
<trkpt lat="22.305342" lon="103.775108">
<ele>3045.2</ele>
<time>2011-04-24T05:19:33Z</time>
<desc>lat.=22.305342, lon.=103.775108, Alt.=3049.220703m. Speed=0.792000m/h.</desc>
<speed>0.220000</speed>
</trkpt>
<trkpt lat="22.306345" lon="103.774673">
<ele>3018.3</ele>
<time>2011-04-24T05:22:38Z</time>
<desc>lat.=22.306345, lon.=103.774673, Alt.=3013.033203m. Speed=3.024000m/h.</desc>
<speed>0.840000</speed>
</trkpt>
<trkpt lat="22.306662" lon="103.774719">
<ele>3007.2</ele>
<time>2011-04-24T05:23:03Z</time>
<desc>lat.=22.306662, lon.=103.774719, Alt.=3008.033203m. Speed=1.908000m/h.</desc>
<speed>0.530000</speed>
</trkpt>
<trkpt lat="22.307121" lon="103.775658">
<ele>2965.5</ele>
<time>2011-04-24T05:27:33Z</time>
<desc>lat.=22.307121, lon.=103.775658, Alt.=2965.345703m. Speed=5.040000m/h.</desc>
<speed>1.400000</speed>
</trkpt>
<trkpt lat="22.307598" lon="103.774872">
<ele>2944.0</ele>
<time>2011-04-24T05:32:13Z</time>
<desc>lat.=22.307598, lon.=103.774872, Alt.=2952.283203m. Speed=0.576000m/h.</desc>
<speed>0.160000</speed>
</trkpt>
<trkpt lat="22.307465" lon="103.774635">
<ele>2958.0</ele>
<time>2011-04-24T05:32:58Z</time>
<desc>lat.=22.307465, lon.=103.774635, Alt.=2950.095703m. Speed=2.988000m/h.</desc>
<speed>0.830000</speed>
</trkpt>
<trkpt lat="22.307592" lon="103.774742">
<ele>2944.7</ele>
<time>2011-04-24T05:34:18Z</time>
<desc>lat.=22.307592, lon.=103.774742, Alt.=2946.783203m. Speed=0.828000m/h.</desc>
<speed>0.230000</speed>
</trkpt>
<trkpt lat="22.307623" lon="103.774529">
<ele>2940.6</ele>
<time>2011-04-24T05:37:08Z</time>
<desc>lat.=22.307623, lon.=103.774529, Alt.=2942.095703m. Speed=0.684000m/h.</desc>
<speed>0.190000</speed>
</trkpt>
<trkpt lat="22.307861" lon="103.774712">
<ele>2919.5</ele>
<time>2011-04-24T05:37:53Z</time>
<desc>lat.=22.307861, lon.=103.774712, Alt.=2937.783203m. Speed=2.124000m/h.</desc>
<speed>0.590000</speed>
</trkpt>
<trkpt lat="22.307697" lon="103.774445">
<ele>2932.4</ele>
<time>2011-04-24T05:38:43Z</time>
<desc>lat.=22.307697, lon.=103.774445, Alt.=2934.408203m. Speed=2.628000m/h.</desc>
<speed>0.730000</speed>
</trkpt>
<trkpt lat="22.308006" lon="103.774506">
<ele>2902.1</ele>
<time>2011-04-24T05:39:48Z</time>
<desc>lat.=22.308006, lon.=103.774506, Alt.=2928.845703m. Speed=1.224000m/h.</desc>
<speed>0.340000</speed>
</trkpt>
<trkpt lat="22.308041" lon="103.774193">
<ele>2891.7</ele>
<time>2011-04-24T05:41:18Z</time>
<desc>lat.=22.308041, lon.=103.774193, Alt.=2912.220703m. Speed=0.612000m/h.</desc>
<speed>0.170000</speed>
</trkpt>
<trkpt lat="22.308197" lon="103.774155">
<ele>2875.1</ele>
<time>2011-04-24T05:41:43Z</time>
<desc>lat.=22.308197, lon.=103.774155, Alt.=2909.283203m. Speed=2.628000m/h.</desc>
<speed>0.730000</speed>
</trkpt>
<trkpt lat="22.308010" lon="103.773514">
<ele>2885.0</ele>
<time>2011-04-24T05:44:13Z</time>
<desc>lat.=22.308010, lon.=103.773514, Alt.=2871.783203m. Speed=3.168000m/h.</desc>
<speed>0.880000</speed>
</trkpt>
<trkpt lat="22.308174" lon="103.773041">
<ele>2877.8</ele>
<time>2011-04-24T05:45:33Z</time>
<desc>lat.=22.308174, lon.=103.773041, Alt.=2865.783203m. Speed=1.188000m/h.</desc>
<speed>0.330000</speed>
</trkpt>
<trkpt lat="22.308645" lon="103.773109">
<ele>2854.2</ele>
<time>2011-04-24T05:47:33Z</time>
<desc>lat.=22.308645, lon.=103.773109, Alt.=2869.470703m. Speed=2.340000m/h.</desc>
<speed>0.650000</speed>
</trkpt>
<trkpt lat="22.308588" lon="103.772995">
<ele>2860.5</ele>
<time>2011-04-24T05:47:58Z</time>
<desc>lat.=22.308588, lon.=103.772995, Alt.=2870.533203m. Speed=0.900000m/h.</desc>
<speed>0.250000</speed>
</trkpt>
<trkpt lat="22.308876" lon="103.772713">
<ele>2866.5</ele>
<time>2011-04-24T05:49:58Z</time>
<desc>lat.=22.308876, lon.=103.772713, Alt.=2880.533203m. Speed=3.384000m/h.</desc>
<speed>0.940000</speed>
</trkpt>
<trkpt lat="22.308891" lon="103.772446">
<ele>2876.6</ele>
<time>2011-04-24T05:50:53Z</time>
<desc>lat.=22.308891, lon.=103.772446, Alt.=2879.595703m. Speed=3.600000m/h.</desc>
<speed>1.000000</speed>
</trkpt>
<trkpt lat="22.308975" lon="103.772507">
<ele>2872.6</ele>
<time>2011-04-24T05:56:13Z</time>
<desc>lat.=22.308975, lon.=103.772507, Alt.=2876.158203m. Speed=1.080000m/h.</desc>
<speed>0.300000</speed>
</trkpt>
<trkpt lat="22.308867" lon="103.772469">
<ele>2876.3</ele>
<time>2011-04-24T05:57:08Z</time>
<desc>lat.=22.308867, lon.=103.772469, Alt.=2876.533203m. Speed=1.296000m/h.</desc>
<speed>0.360000</speed>
</trkpt>
<trkpt lat="22.309179" lon="103.772530">
<ele>2873.7</ele>
<time>2011-04-24T06:00:58Z</time>
<desc>lat.=22.309179, lon.=103.772530, Alt.=2870.908203m. Speed=1.404000m/h.</desc>
<speed>0.390000</speed>
</trkpt>
<trkpt lat="22.309208" lon="103.772240">
<ele>2882.1</ele>
<time>2011-04-24T06:01:38Z</time>
<desc>lat.=22.309208, lon.=103.772240, Alt.=2869.658203m. Speed=4.176000m/h.</desc>
<speed>1.160000</speed>
</trkpt>
<trkpt lat="22.309534" lon="103.772133">
<ele>2902.5</ele>
<time>2011-04-24T06:03:03Z</time>
<desc>lat.=22.309534, lon.=103.772133, Alt.=2876.033203m. Speed=2.304000m/h.</desc>
<speed>0.640000</speed>
</trkpt>
<trkpt lat="22.309664" lon="103.771706">
<ele>2933.2</ele>
<time>2011-04-24T06:04:33Z</time>
<desc>lat.=22.309664, lon.=103.771706, Alt.=2880.970703m. Speed=2.484000m/h.</desc>
<speed>0.690000</speed>
</trkpt>
<trkpt lat="22.309984" lon="103.771912">
<ele>2934.0</ele>
<time>2011-04-24T06:05:03Z</time>
<desc>lat.=22.309984, lon.=103.771912, Alt.=2889.658203m. Speed=2.556000m/h.</desc>
<speed>0.710000</speed>
</trkpt>
<trkpt lat="22.310019" lon="103.771729">
<ele>2941.8</ele>
<time>2011-04-24T06:06:43Z</time>
<desc>lat.=22.310019, lon.=103.771729, Alt.=2900.533203m. Speed=0.972000m/h.</desc>
<speed>0.270000</speed>
</trkpt>
<trkpt lat="22.310135" lon="103.771767">
<ele>2941.7</ele>
<time>2011-04-24T06:07:08Z</time>
<desc>lat.=22.310135, lon.=103.771767, Alt.=2908.283203m. Speed=0.576000m/h.</desc>
<speed>0.160000</speed>
</trkpt>
<trkpt lat="22.310047" lon="103.769310">
<ele>2921.2</ele>
<time>2011-04-24T06:13:18Z</time>
<desc>lat.=22.310047, lon.=103.769310, Alt.=2929.158203m. Speed=3.168000m/h.</desc>
<speed>0.880000</speed>
</trkpt>
<trkpt lat="22.310362" lon="103.769043">
<ele>2909.2</ele>
<time>2011-04-24T06:14:23Z</time>
<desc>lat.=22.310362, lon.=103.769043, Alt.=2918.658203m. Speed=0.648000m/h.</desc>
<speed>0.180000</speed>
</trkpt>
<trkpt lat="22.310699" lon="103.768997">
<ele>2899.5</ele>
<time>2011-04-24T06:15:13Z</time>
<desc>lat.=22.310699, lon.=103.768997, Alt.=2912.908203m. Speed=3.096000m/h.</desc>
<speed>0.860000</speed>
</trkpt>
<trkpt lat="22.311100" lon="103.768272">
<ele>2908.2</ele>
<time>2011-04-24T06:16:33Z</time>
<desc>lat.=22.311100, lon.=103.768272, Alt.=2889.283203m. Speed=2.808000m/h.</desc>
<speed>0.780000</speed>
</trkpt>
<trkpt lat="22.311646" lon="103.768028">
<ele>2898.1</ele>
<time>2011-04-24T06:17:48Z</time>
<desc>lat.=22.311646, lon.=103.768028, Alt.=2887.533203m. Speed=5.580000m/h.</desc>
<speed>1.550000</speed>
</trkpt>
<trkpt lat="22.311718" lon="103.767731">
<ele>2904.3</ele>
<time>2011-04-24T06:18:18Z</time>
<desc>lat.=22.311718, lon.=103.767731, Alt.=2887.283203m. Speed=2.520000m/h.</desc>
<speed>0.700000</speed>
</trkpt>
<trkpt lat="22.312071" lon="103.767441">
<ele>2892.1</ele>
<time>2011-04-24T06:19:18Z</time>
<desc>lat.=22.312071, lon.=103.767441, Alt.=2884.033203m. Speed=3.492000m/h.</desc>
<speed>0.970000</speed>
</trkpt>
<trkpt lat="22.312056" lon="103.766785">
<ele>2894.2</ele>
<time>2011-04-24T06:20:53Z</time>
<desc>lat.=22.312056, lon.=103.766785, Alt.=2873.845703m. Speed=0.540000m/h.</desc>
<speed>0.150000</speed>
</trkpt>
<trkpt lat="22.312639" lon="103.766617">
<ele>2857.9</ele>
<time>2011-04-24T06:22:53Z</time>
<desc>lat.=22.312639, lon.=103.766617, Alt.=2861.033203m. Speed=1.152000m/h.</desc>
<speed>0.320000</speed>
</trkpt>
<trkpt lat="22.312792" lon="103.766251">
<ele>2865.6</ele>
<time>2011-04-24T06:23:28Z</time>
<desc>lat.=22.312792, lon.=103.766251, Alt.=2859.595703m. Speed=3.060000m/h.</desc>
<speed>0.850000</speed>
</trkpt>
<trkpt lat="22.312750" lon="103.765854">
<ele>2868.0</ele>
<time>2011-04-24T06:24:28Z</time>
<desc>lat.=22.312750, lon.=103.765854, Alt.=2854.720703m. Speed=0.252000m/h.</desc>
<speed>0.070000</speed>
</trkpt>
<trkpt lat="22.313292" lon="103.765190">
<ele>2841.1</ele>
<time>2011-04-24T06:26:48Z</time>
<desc>lat.=22.313292, lon.=103.765190, Alt.=2833.220703m. Speed=4.212000m/h.</desc>
<speed>1.170000</speed>
</trkpt>
<trkpt lat="22.313622" lon="103.765556">
<ele>2803.7</ele>
<time>2011-04-24T06:28:38Z</time>
<desc>lat.=22.313622, lon.=103.765556, Alt.=2807.908203m. Speed=0.756000m/h.</desc>
<speed>0.210000</speed>
</trkpt>
<trkpt lat="22.313786" lon="103.765526">
<ele>2796.5</ele>
<time>2011-04-24T06:29:18Z</time>
<desc>lat.=22.313786, lon.=103.765526, Alt.=2802.033203m. Speed=2.376000m/h.</desc>
<speed>0.660000</speed>
</trkpt>
<trkpt lat="22.313828" lon="103.765350">
<ele>2804.5</ele>
<time>2011-04-24T06:29:53Z</time>
<desc>lat.=22.313828, lon.=103.765350, Alt.=2796.033203m. Speed=0.324000m/h.</desc>
<speed>0.090000</speed>
</trkpt>
<trkpt lat="22.314100" lon="103.765358">
<ele>2795.2</ele>
<time>2011-04-24T06:30:43Z</time>
<desc>lat.=22.314100, lon.=103.765358, Alt.=2793.095703m. Speed=2.340000m/h.</desc>
<speed>0.650000</speed>
</trkpt>
<trkpt lat="22.314585" lon="103.765610">
<ele>2774.8</ele>
<time>2011-04-24T06:36:18Z</time>
<desc>lat.=22.314585, lon.=103.765610, Alt.=2784.220703m. Speed=0.900000m/h.</desc>
<speed>0.250000</speed>
</trkpt>
<trkpt lat="22.314528" lon="103.765732">
<ele>2772.6</ele>
<time>2011-04-24T06:37:03Z</time>
<desc>lat.=22.314528, lon.=103.765732, Alt.=2784.408203m. Speed=0.936000m/h.</desc>
<speed>0.260000</speed>
</trkpt>
<trkpt lat="22.314426" lon="103.765602">
<ele>2774.0</ele>
<time>2011-04-24T06:39:18Z</time>
<desc>lat.=22.314426, lon.=103.765602, Alt.=2781.658203m. Speed=1.044000m/h.</desc>
<speed>0.290000</speed>
</trkpt>
<trkpt lat="22.314621" lon="103.765442">
<ele>2782.6</ele>
<time>2011-04-24T06:40:38Z</time>
<desc>lat.=22.314621, lon.=103.765442, Alt.=2777.220703m. Speed=3.564000m/h.</desc>
<speed>0.990000</speed>
</trkpt>
<trkpt lat="22.314985" lon="103.765480">
<ele>2784.8</ele>
<time>2011-04-24T06:41:38Z</time>
<desc>lat.=22.314985, lon.=103.765480, Alt.=2769.970703m. Speed=3.744000m/h.</desc>
<speed>1.040000</speed>
</trkpt>
<trkpt lat="22.314375" lon="103.765625">
<ele>2773.1</ele>
<time>2011-04-24T06:43:58Z</time>
<desc>lat.=22.314375, lon.=103.765625, Alt.=2767.845703m. Speed=0.972000m/h.</desc>
<speed>0.270000</speed>
</trkpt>
<trkpt lat="22.314598" lon="103.765633">
<ele>2774.8</ele>
<time>2011-04-24T06:44:28Z</time>
<desc>lat.=22.314598, lon.=103.765633, Alt.=2776.033203m. Speed=0.792000m/h.</desc>
<speed>0.220000</speed>
</trkpt>
<trkpt lat="22.314627" lon="103.765472">
<ele>2781.0</ele>
<time>2011-04-24T06:44:43Z</time>
<desc>lat.=22.314627, lon.=103.765472, Alt.=2785.345703m. Speed=8.748000m/h.</desc>
<speed>2.430000</speed>
</trkpt>
<trkpt lat="22.314518" lon="103.765457">
<ele>2781.6</ele>
<time>2011-04-24T06:45:18Z</time>
<desc>lat.=22.314518, lon.=103.765457, Alt.=2809.095703m. Speed=4.752000m/h.</desc>
<speed>1.320000</speed>
</trkpt>
<trkpt lat="22.314562" lon="103.765869">
<ele>2771.3</ele>
<time>2011-04-24T06:46:28Z</time>
<desc>lat.=22.314562, lon.=103.765869, Alt.=2808.970703m. Speed=2.556000m/h.</desc>
<speed>0.710000</speed>
</trkpt>
<trkpt lat="22.314442" lon="103.765686">
<ele>2772.3</ele>
<time>2011-04-24T06:46:53Z</time>
<desc>lat.=22.314442, lon.=103.765686, Alt.=2804.033203m. Speed=1.548000m/h.</desc>
<speed>0.430000</speed>
</trkpt>
<trkpt lat="22.314564" lon="103.765656">
<ele>2774.1</ele>
<time>2011-04-24T06:47:08Z</time>
<desc>lat.=22.314564, lon.=103.765656, Alt.=2798.220703m. Speed=1.404000m/h.</desc>
<speed>0.390000</speed>
</trkpt>
<trkpt lat="22.314520" lon="103.765472">
<ele>2780.7</ele>
<time>2011-04-24T06:47:33Z</time>
<desc>lat.=22.314520, lon.=103.765472, Alt.=2792.283203m. Speed=0.576000m/h.</desc>
<speed>0.160000</speed>
</trkpt>
<trkpt lat="22.314573" lon="103.765755">
<ele>2773.0</ele>
<time>2011-04-24T06:49:23Z</time>
<desc>lat.=22.314573, lon.=103.765755, Alt.=2788.283203m. Speed=1.224000m/h.</desc>
<speed>0.340000</speed>
</trkpt>
<trkpt lat="22.314545" lon="103.765579">
<ele>2775.0</ele>
<time>2011-04-24T06:51:18Z</time>
<desc>lat.=22.314545, lon.=103.765579, Alt.=2786.095703m. Speed=1.044000m/h.</desc>
<speed>0.290000</speed>
</trkpt>
<trkpt lat="22.314789" lon="103.765488">
<ele>2782.1</ele>
<time>2011-04-24T06:51:58Z</time>
<desc>lat.=22.314789, lon.=103.765488, Alt.=2784.283203m. Speed=2.124000m/h.</desc>
<speed>0.590000</speed>
</trkpt>
<trkpt lat="22.314619" lon="103.765533">
<ele>2777.6</ele>
<time>2011-04-24T06:54:08Z</time>
<desc>lat.=22.314619, lon.=103.765533, Alt.=2785.658203m. Speed=1.332000m/h.</desc>
<speed>0.370000</speed>
</trkpt>
<trkpt lat="22.314735" lon="103.765526">
<ele>2779.6</ele>
<time>2011-04-24T06:55:28Z</time>
<desc>lat.=22.314735, lon.=103.765526, Alt.=2786.845703m. Speed=1.944000m/h.</desc>
<speed>0.540000</speed>
</trkpt>
<trkpt lat="22.314644" lon="103.765663">
<ele>2775.4</ele>
<time>2011-04-24T06:56:33Z</time>
<desc>lat.=22.314644, lon.=103.765663, Alt.=2785.283203m. Speed=0.648000m/h.</desc>
<speed>0.180000</speed>
</trkpt>
<trkpt lat="22.314449" lon="103.765602">
<ele>2774.1</ele>
<time>2011-04-24T06:57:33Z</time>
<desc>lat.=22.314449, lon.=103.765602, Alt.=2785.095703m. Speed=0.648000m/h.</desc>
<speed>0.180000</speed>
</trkpt>
<trkpt lat="22.314503" lon="103.765518">
<ele>2777.8</ele>
<time>2011-04-24T06:58:33Z</time>
<desc>lat.=22.314503, lon.=103.765518, Alt.=2784.533203m. Speed=0.468000m/h.</desc>
<speed>0.130000</speed>
</trkpt>
<trkpt lat="22.314413" lon="103.765633">
<ele>2773.2</ele>
<time>2011-04-24T06:58:58Z</time>
<desc>lat.=22.314413, lon.=103.765633, Alt.=2784.470703m. Speed=0.792000m/h.</desc>
<speed>0.220000</speed>
</trkpt>
<trkpt lat="22.314356" lon="103.765518">
<ele>2777.7</ele>
<time>2011-04-24T06:59:53Z</time>
<desc>lat.=22.314356, lon.=103.765518, Alt.=2779.970703m. Speed=0.648000m/h.</desc>
<speed>0.180000</speed>
</trkpt>
<trkpt lat="22.314445" lon="103.765625">
<ele>2773.6</ele>
<time>2011-04-24T07:00:08Z</time>
<desc>lat.=22.314445, lon.=103.765625, Alt.=2783.658203m. Speed=1.512000m/h.</desc>
<speed>0.420000</speed>
</trkpt>
<trkpt lat="22.314508" lon="103.765419">
<ele>2784.0</ele>
<time>2011-04-24T07:02:08Z</time>
<desc>lat.=22.314508, lon.=103.765419, Alt.=2785.533203m. Speed=1.764000m/h.</desc>
<speed>0.490000</speed>
</trkpt>
<trkpt lat="22.314388" lon="103.765640">
<ele>2772.8</ele>
<time>2011-04-24T07:02:48Z</time>
<desc>lat.=22.314388, lon.=103.765640, Alt.=2779.845703m. Speed=1.584000m/h.</desc>
<speed>0.440000</speed>
</trkpt>
<trkpt lat="22.314367" lon="103.765396">
<ele>2786.3</ele>
<time>2011-04-24T07:03:53Z</time>
<desc>lat.=22.314367, lon.=103.765396, Alt.=2775.595703m. Speed=1.548000m/h.</desc>
<speed>0.430000</speed>
</trkpt>
<trkpt lat="22.314543" lon="103.765541">
<ele>2776.5</ele>
<time>2011-04-24T07:04:53Z</time>
<desc>lat.=22.314543, lon.=103.765541, Alt.=2774.345703m. Speed=0.684000m/h.</desc>
<speed>0.190000</speed>
</trkpt>
<trkpt lat="22.314508" lon="103.765709">
<ele>2772.7</ele>
<time>2011-04-24T07:07:18Z</time>
<desc>lat.=22.314508, lon.=103.765709, Alt.=2778.220703m. Speed=2.196000m/h.</desc>
<speed>0.610000</speed>
</trkpt>
<trkpt lat="22.314455" lon="103.765480">
<ele>2780.3</ele>
<time>2011-04-24T07:10:23Z</time>
<desc>lat.=22.314455, lon.=103.765480, Alt.=2772.533203m. Speed=0.144000m/h.</desc>
<speed>0.040000</speed>
</trkpt>
<trkpt lat="22.314680" lon="103.765739">
<ele>2775.4</ele>
<time>2011-04-24T07:13:03Z</time>
<desc>lat.=22.314680, lon.=103.765739, Alt.=2768.908203m. Speed=1.620000m/h.</desc>
<speed>0.450000</speed>
</trkpt>
<trkpt lat="22.314503" lon="103.765617">
<ele>2774.2</ele>
<time>2011-04-24T07:13:58Z</time>
<desc>lat.=22.314503, lon.=103.765617, Alt.=2771.408203m. Speed=0.000000m/h.</desc>
<speed>0.000000</speed>
</trkpt>
<trkpt lat="22.314623" lon="103.765450">
<ele>2782.2</ele>
<time>2011-04-24T07:14:53Z</time>
<desc>lat.=22.314623, lon.=103.765450, Alt.=2771.533203m. Speed=0.648000m/h.</desc>
<speed>0.180000</speed>
</trkpt>
<trkpt lat="22.314701" lon="103.765526">
<ele>2779.1</ele>
<time>2011-04-24T07:15:58Z</time>
<desc>lat.=22.314701, lon.=103.765526, Alt.=2770.408203m. Speed=3.204000m/h.</desc>
<speed>0.890000</speed>
</trkpt>
<trkpt lat="22.314520" lon="103.765556">
<ele>2775.5</ele>
<time>2011-04-24T07:16:58Z</time>
<desc>lat.=22.314520, lon.=103.765556, Alt.=2769.533203m. Speed=1.476000m/h.</desc>
<speed>0.410000</speed>
</trkpt>
<trkpt lat="22.314558" lon="103.765671">
<ele>2773.8</ele>
<time>2011-04-24T07:17:53Z</time>
<desc>lat.=22.314558, lon.=103.765671, Alt.=2772.095703m. Speed=1.656000m/h.</desc>
<speed>0.460000</speed>
</trkpt>
<trkpt lat="22.314480" lon="103.765358">
<ele>2788.0</ele>
<time>2011-04-24T07:29:33Z</time>
<desc>lat.=22.314480, lon.=103.765358, Alt.=2776.470703m. Speed=1.224000m/h.</desc>
<speed>0.340000</speed>
</trkpt>
<trkpt lat="22.314606" lon="103.765678">
<ele>2774.5</ele>
<time>2011-04-24T07:41:18Z</time>
<desc>lat.=22.314606, lon.=103.765678, Alt.=2789.783203m. Speed=0.792000m/h.</desc>
<speed>0.220000</speed>
</trkpt>
<trkpt lat="22.314919" lon="103.765533">
<ele>2781.9</ele>
<time>2011-04-24T07:42:33Z</time>
<desc>lat.=22.314919, lon.=103.765533, Alt.=2790.220703m. Speed=4.284000m/h.</desc>
<speed>1.190000</speed>
</trkpt>
<trkpt lat="22.315275" lon="103.766022">
<ele>2783.7</ele>
<time>2011-04-24T07:43:28Z</time>
<desc>lat.=22.315275, lon.=103.766022, Alt.=2795.033203m. Speed=3.816000m/h.</desc>
<speed>1.060000</speed>
</trkpt>
<trkpt lat="22.315617" lon="103.765709">
<ele>2788.4</ele>
<time>2011-04-24T07:44:18Z</time>
<desc>lat.=22.315617, lon.=103.765709, Alt.=2791.533203m. Speed=1.728000m/h.</desc>
<speed>0.480000</speed>
</trkpt>
<trkpt lat="22.315964" lon="103.765892">
<ele>2785.9</ele>
<time>2011-04-24T07:45:03Z</time>
<desc>lat.=22.315964, lon.=103.765892, Alt.=2791.033203m. Speed=2.520000m/h.</desc>
<speed>0.700000</speed>
</trkpt>
<trkpt lat="22.316496" lon="103.766556">
<ele>2783.8</ele>
<time>2011-04-24T07:46:58Z</time>
<desc>lat.=22.316496, lon.=103.766556, Alt.=2807.283203m. Speed=1.224000m/h.</desc>
<speed>0.340000</speed>
</trkpt>
<trkpt lat="22.316797" lon="103.766472">
<ele>2798.0</ele>
<time>2011-04-24T07:47:53Z</time>
<desc>lat.=22.316797, lon.=103.766472, Alt.=2807.220703m. Speed=3.348000m/h.</desc>
<speed>0.930000</speed>
</trkpt>
<trkpt lat="22.317560" lon="103.766991">
<ele>2755.2</ele>
<time>2011-04-24T07:51:23Z</time>
<desc>lat.=22.317560, lon.=103.766991, Alt.=2776.908203m. Speed=1.476000m/h.</desc>
<speed>0.410000</speed>
</trkpt>
<trkpt lat="22.318350" lon="103.767120">
<ele>2717.7</ele>
<time>2011-04-24T07:55:08Z</time>
<desc>lat.=22.318350, lon.=103.767120, Alt.=2738.720703m. Speed=0.828000m/h.</desc>
<speed>0.230000</speed>
</trkpt>
<trkpt lat="22.318584" lon="103.767395">
<ele>2702.4</ele>
<time>2011-04-24T07:57:18Z</time>
<desc>lat.=22.318584, lon.=103.767395, Alt.=2723.158203m. Speed=1.224000m/h.</desc>
<speed>0.340000</speed>
</trkpt>
<trkpt lat="22.318979" lon="103.767509">
<ele>2685.4</ele>
<time>2011-04-24T07:59:53Z</time>
<desc>lat.=22.318979, lon.=103.767509, Alt.=2696.783203m. Speed=2.592000m/h.</desc>
<speed>0.720000</speed>
</trkpt>
<trkpt lat="22.319225" lon="103.768219">
<ele>2664.5</ele>
<time>2011-04-24T08:02:33Z</time>
<desc>lat.=22.319225, lon.=103.768219, Alt.=2685.158203m. Speed=0.288000m/h.</desc>
<speed>0.080000</speed>
</trkpt>
<trkpt lat="22.319365" lon="103.768227">
<ele>2666.7</ele>
<time>2011-04-24T08:04:13Z</time>
<desc>lat.=22.319365, lon.=103.768227, Alt.=2675.595703m. Speed=1.224000m/h.</desc>
<speed>0.340000</speed>
</trkpt>
<trkpt lat="22.319706" lon="103.768837">
<ele>2648.1</ele>
<time>2011-04-24T08:06:23Z</time>
<desc>lat.=22.319706, lon.=103.768837, Alt.=2656.158203m. Speed=1.728000m/h.</desc>
<speed>0.480000</speed>
</trkpt>
<trkpt lat="22.319664" lon="103.769218">
<ele>2644.8</ele>
<time>2011-04-24T08:07:28Z</time>
<desc>lat.=22.319664, lon.=103.769218, Alt.=2660.533203m. Speed=0.144000m/h.</desc>
<speed>0.040000</speed>
</trkpt>
<trkpt lat="22.319811" lon="103.769562">
<ele>2639.5</ele>
<time>2011-04-24T08:09:58Z</time>
<desc>lat.=22.319811, lon.=103.769562, Alt.=2659.783203m. Speed=1.476000m/h.</desc>
<speed>0.410000</speed>
</trkpt>
<trkpt lat="22.320112" lon="103.769684">
<ele>2621.0</ele>
<time>2011-04-24T08:12:08Z</time>
<desc>lat.=22.320112, lon.=103.769684, Alt.=2652.408203m. Speed=1.332000m/h.</desc>
<speed>0.370000</speed>
</trkpt>
<trkpt lat="22.320137" lon="103.769966">
<ele>2609.2</ele>
<time>2011-04-24T08:16:43Z</time>
<desc>lat.=22.320137, lon.=103.769966, Alt.=2600.345703m. Speed=0.036000m/h.</desc>
<speed>0.010000</speed>
</trkpt>
<trkpt lat="22.320248" lon="103.769791">
<ele>2609.1</ele>
<time>2011-04-24T08:18:03Z</time>
<desc>lat.=22.320248, lon.=103.769791, Alt.=2590.720703m. Speed=0.576000m/h.</desc>
<speed>0.160000</speed>
</trkpt>
<trkpt lat="22.320145" lon="103.769592">
<ele>2621.1</ele>
<time>2011-04-24T08:19:48Z</time>
<desc>lat.=22.320145, lon.=103.769592, Alt.=2581.033203m. Speed=0.468000m/h.</desc>
<speed>0.130000</speed>
</trkpt>
<trkpt lat="22.320324" lon="103.769989">
<ele>2598.8</ele>
<time>2011-04-24T08:20:48Z</time>
<desc>lat.=22.320324, lon.=103.769989, Alt.=2587.658203m. Speed=0.180000m/h.</desc>
<speed>0.050000</speed>
</trkpt>
<trkpt lat="22.320612" lon="103.770096">
<ele>2582.5</ele>
<time>2011-04-24T08:22:28Z</time>
<desc>lat.=22.320612, lon.=103.770096, Alt.=2591.658203m. Speed=1.116000m/h.</desc>
<speed>0.310000</speed>
</trkpt>
<trkpt lat="22.320625" lon="103.770485">
<ele>2577.7</ele>
<time>2011-04-24T08:23:08Z</time>
<desc>lat.=22.320625, lon.=103.770485, Alt.=2589.470703m. Speed=4.104000m/h.</desc>
<speed>1.140000</speed>
</trkpt>
<trkpt lat="22.320850" lon="103.770813">
<ele>2568.1</ele>
<time>2011-04-24T08:24:03Z</time>
<desc>lat.=22.320850, lon.=103.770813, Alt.=2586.158203m. Speed=3.096000m/h.</desc>
<speed>0.860000</speed>
</trkpt>
<trkpt lat="22.321848" lon="103.770958">
<ele>2523.0</ele>
<time>2011-04-24T08:28:28Z</time>
<desc>lat.=22.321848, lon.=103.770958, Alt.=2549.470703m. Speed=1.944000m/h.</desc>
<speed>0.540000</speed>
</trkpt>
<trkpt lat="22.322369" lon="103.770782">
<ele>2506.8</ele>
<time>2011-04-24T08:30:43Z</time>
<desc>lat.=22.322369, lon.=103.770782, Alt.=2529.845703m. Speed=2.196000m/h.</desc>
<speed>0.610000</speed>
</trkpt>
<trkpt lat="22.322481" lon="103.770996">
<ele>2494.5</ele>
<time>2011-04-24T08:32:38Z</time>
<desc>lat.=22.322481, lon.=103.770996, Alt.=2505.908203m. Speed=1.044000m/h.</desc>
<speed>0.290000</speed>
</trkpt>
<trkpt lat="22.322697" lon="103.770653">
<ele>2484.3</ele>
<time>2011-04-24T08:35:08Z</time>
<desc>lat.=22.322697, lon.=103.770653, Alt.=2490.908203m. Speed=2.340000m/h.</desc>
<speed>0.650000</speed>
</trkpt>
<trkpt lat="22.323605" lon="103.771408">
<ele>2429.4</ele>
<time>2011-04-24T08:48:13Z</time>
<desc>lat.=22.323605, lon.=103.771408, Alt.=2444.033203m. Speed=5.112000m/h.</desc>
<speed>1.420000</speed>
</trkpt>
<trkpt lat="22.324207" lon="103.771423">
<ele>2414.2</ele>
<time>2011-04-24T08:51:53Z</time>
<desc>lat.=22.324207, lon.=103.771423, Alt.=2411.095703m. Speed=1.116000m/h.</desc>
<speed>0.310000</speed>
</trkpt>
<trkpt lat="22.324852" lon="103.772476">
<ele>2389.8</ele>
<time>2011-04-24T08:54:38Z</time>
<desc>lat.=22.324852, lon.=103.772476, Alt.=2392.470703m. Speed=2.340000m/h.</desc>
<speed>0.650000</speed>
</trkpt>
<trkpt lat="22.325256" lon="103.772346">
<ele>2381.7</ele>
<time>2011-04-24T08:56:23Z</time>
<desc>lat.=22.325256, lon.=103.772346, Alt.=2377.533203m. Speed=1.584000m/h.</desc>
<speed>0.440000</speed>
</trkpt>
<trkpt lat="22.325384" lon="103.772552">
<ele>2374.7</ele>
<time>2011-04-24T08:56:48Z</time>
<desc>lat.=22.325384, lon.=103.772552, Alt.=2374.595703m. Speed=4.572000m/h.</desc>
<speed>1.270000</speed>
</trkpt>
<trkpt lat="22.326010" lon="103.772491">
<ele>2376.0</ele>
<time>2011-04-24T08:58:28Z</time>
<desc>lat.=22.326010, lon.=103.772491, Alt.=2374.845703m. Speed=2.412000m/h.</desc>
<speed>0.670000</speed>
</trkpt>
<trkpt lat="22.326246" lon="103.772751">
<ele>2357.5</ele>
<time>2011-04-24T08:59:43Z</time>
<desc>lat.=22.326246, lon.=103.772751, Alt.=2367.533203m. Speed=1.440000m/h.</desc>
<speed>0.400000</speed>
</trkpt>
<trkpt lat="22.326679" lon="103.772614">
<ele>2363.4</ele>
<time>2011-04-24T09:01:48Z</time>
<desc>lat.=22.326679, lon.=103.772614, Alt.=2351.970703m. Speed=7.380000m/h.</desc>
<speed>2.050000</speed>
</trkpt>
<trkpt lat="22.326622" lon="103.773300">
<ele>2359.0</ele>
<time>2011-04-24T09:02:58Z</time>
<desc>lat.=22.326622, lon.=103.773300, Alt.=2361.845703m. Speed=3.384000m/h.</desc>
<speed>0.940000</speed>
</trkpt>
<trkpt lat="22.327061" lon="103.774689">
<ele>2364.6</ele>
<time>2011-04-24T09:06:18Z</time>
<desc>lat.=22.327061, lon.=103.774689, Alt.=2366.970703m. Speed=5.112000m/h.</desc>
<speed>1.420000</speed>
</trkpt>
<trkpt lat="22.327013" lon="103.776321">
<ele>2342.1</ele>
<time>2011-04-24T09:10:28Z</time>
<desc>lat.=22.327013, lon.=103.776321, Alt.=2341.033203m. Speed=3.492000m/h.</desc>
<speed>0.970000</speed>
</trkpt>
<trkpt lat="22.326878" lon="103.776627">
<ele>2333.6</ele>
<time>2011-04-24T09:11:08Z</time>
<desc>lat.=22.326878, lon.=103.776627, Alt.=2336.533203m. Speed=4.248000m/h.</desc>
<speed>1.180000</speed>
</trkpt>
<trkpt lat="22.326403" lon="103.776817">
<ele>2325.3</ele>
<time>2011-04-24T09:12:38Z</time>
<desc>lat.=22.326403, lon.=103.776817, Alt.=2324.970703m. Speed=5.760000m/h.</desc>
<speed>1.600000</speed>
</trkpt>
<trkpt lat="22.326096" lon="103.777374">
<ele>2323.4</ele>
<time>2011-04-24T09:15:08Z</time>
<desc>lat.=22.326096, lon.=103.777374, Alt.=2325.908203m. Speed=0.072000m/h.</desc>
<speed>0.020000</speed>
</trkpt>
<trkpt lat="22.326061" lon="103.778908">
<ele>2314.1</ele>
<time>2011-04-24T09:17:18Z</time>
<desc>lat.=22.326061, lon.=103.778908, Alt.=2321.345703m. Speed=3.744000m/h.</desc>
<speed>1.040000</speed>
</trkpt>
<trkpt lat="22.326406" lon="103.779671">
<ele>2306.4</ele>
<time>2011-04-24T09:19:28Z</time>
<desc>lat.=22.326406, lon.=103.779671, Alt.=2300.095703m. Speed=1.512000m/h.</desc>
<speed>0.420000</speed>
</trkpt>
<trkpt lat="22.326288" lon="103.779808">
<ele>2296.4</ele>
<time>2011-04-24T09:20:08Z</time>
<desc>lat.=22.326288, lon.=103.779808, Alt.=2297.970703m. Speed=1.872000m/h.</desc>
<speed>0.520000</speed>
</trkpt>
<trkpt lat="22.326366" lon="103.779984">
<ele>2287.8</ele>
<time>2011-04-24T09:20:33Z</time>
<desc>lat.=22.326366, lon.=103.779984, Alt.=2294.470703m. Speed=2.052000m/h.</desc>
<speed>0.570000</speed>
</trkpt>
<trkpt lat="22.326797" lon="103.780258">
<ele>2282.5</ele>
<time>2011-04-24T09:22:03Z</time>
<desc>lat.=22.326797, lon.=103.780258, Alt.=2285.095703m. Speed=2.448000m/h.</desc>
<speed>0.680000</speed>
</trkpt>
<trkpt lat="22.326916" lon="103.780914">
<ele>2262.2</ele>
<time>2011-04-24T09:23:33Z</time>
<desc>lat.=22.326916, lon.=103.780914, Alt.=2269.345703m. Speed=2.844000m/h.</desc>
<speed>0.790000</speed>
</trkpt>
<trkpt lat="22.327383" lon="103.781334">
<ele>2253.7</ele>
<time>2011-04-24T09:25:23Z</time>
<desc>lat.=22.327383, lon.=103.781334, Alt.=2259.220703m. Speed=1.548000m/h.</desc>
<speed>0.430000</speed>
</trkpt>
<trkpt lat="22.327660" lon="103.781395">
<ele>2249.3</ele>
<time>2011-04-24T09:27:48Z</time>
<desc>lat.=22.327660, lon.=103.781395, Alt.=2253.533203m. Speed=2.124000m/h.</desc>
<speed>0.590000</speed>
</trkpt>
<trkpt lat="22.327726" lon="103.781593">
<ele>2244.0</ele>
<time>2011-04-24T09:29:43Z</time>
<desc>lat.=22.327726, lon.=103.781593, Alt.=2244.658203m. Speed=2.880000m/h.</desc>
<speed>0.800000</speed>
</trkpt>
<trkpt lat="22.328077" lon="103.781578">
<ele>2240.1</ele>
<time>2011-04-24T09:30:18Z</time>
<desc>lat.=22.328077, lon.=103.781578, Alt.=2248.845703m. Speed=4.284000m/h.</desc>
<speed>1.190000</speed>
</trkpt>
<trkpt lat="22.328276" lon="103.781746">
<ele>2236.3</ele>
<time>2011-04-24T09:30:48Z</time>
<desc>lat.=22.328276, lon.=103.781746, Alt.=2233.283203m. Speed=0.432000m/h.</desc>
<speed>0.120000</speed>
</trkpt>
<trkpt lat="22.329437" lon="103.781403">
<ele>2251.6</ele>
<time>2011-04-24T09:39:53Z</time>
<desc>lat.=22.329437, lon.=103.781403, Alt.=2245.345703m. Speed=5.796000m/h.</desc>
<speed>1.610000</speed>
</trkpt>
<trkpt lat="22.329823" lon="103.781609">
<ele>2248.5</ele>
<time>2011-04-24T09:40:38Z</time>
<desc>lat.=22.329823, lon.=103.781609, Alt.=2238.345703m. Speed=1.512000m/h.</desc>
<speed>0.420000</speed>
</trkpt>
<trkpt lat="22.330084" lon="103.781540">
<ele>2242.0</ele>
<time>2011-04-24T09:43:03Z</time>
<desc>lat.=22.330084, lon.=103.781540, Alt.=2235.658203m. Speed=0.828000m/h.</desc>
<speed>0.230000</speed>
</trkpt>
<trkpt lat="22.330301" lon="103.780472">
<ele>2234.4</ele>
<time>2011-04-24T09:45:28Z</time>
<desc>lat.=22.330301, lon.=103.780472, Alt.=2230.158203m. Speed=1.224000m/h.</desc>
<speed>0.340000</speed>
</trkpt>
<trkpt lat="22.331411" lon="103.779243">
<ele>2214.4</ele>
<time>2011-04-24T09:49:23Z</time>
<desc>lat.=22.331411, lon.=103.779243, Alt.=2229.095703m. Speed=2.808000m/h.</desc>
<speed>0.780000</speed>
</trkpt>
<trkpt lat="22.332783" lon="103.779129">
<ele>2189.7</ele>
<time>2011-04-24T09:53:08Z</time>
<desc>lat.=22.332783, lon.=103.779129, Alt.=2191.033203m. Speed=2.376000m/h.</desc>
<speed>0.660000</speed>
</trkpt>
<trkpt lat="22.333872" lon="103.779953">
<ele>2158.7</ele>
<time>2011-04-24T09:56:58Z</time>
<desc>lat.=22.333872, lon.=103.779953, Alt.=2155.533203m. Speed=2.448000m/h.</desc>
<speed>0.680000</speed>
</trkpt>
<trkpt lat="22.334455" lon="103.779655">
<ele>2127.7</ele>
<time>2011-04-24T10:03:03Z</time>
<desc>lat.=22.334455, lon.=103.779655, Alt.=2128.283203m. Speed=0.900000m/h.</desc>
<speed>0.250000</speed>
</trkpt>
<trkpt lat="22.334484" lon="103.779442">
<ele>2122.2</ele>
<time>2011-04-24T10:04:48Z</time>
<desc>lat.=22.334484, lon.=103.779442, Alt.=2117.658203m. Speed=1.476000m/h.</desc>
<speed>0.410000</speed>
</trkpt>
<trkpt lat="22.334278" lon="103.779297">
<ele>2127.0</ele>
<time>2011-04-24T10:05:53Z</time>
<desc>lat.=22.334278, lon.=103.779297, Alt.=2113.720703m. Speed=1.152000m/h.</desc>
<speed>0.320000</speed>
</trkpt>
<trkpt lat="22.334425" lon="103.779160">
<ele>2116.6</ele>
<time>2011-04-24T10:07:03Z</time>
<desc>lat.=22.334425, lon.=103.779160, Alt.=2107.845703m. Speed=2.736000m/h.</desc>
<speed>0.760000</speed>
</trkpt>
<trkpt lat="22.334276" lon="103.778992">
<ele>2115.6</ele>
<time>2011-04-24T10:08:23Z</time>
<desc>lat.=22.334276, lon.=103.778992, Alt.=2101.095703m. Speed=0.900000m/h.</desc>
<speed>0.250000</speed>
</trkpt>
<trkpt lat="22.334457" lon="103.778816">
<ele>2104.5</ele>
<time>2011-04-24T10:08:58Z</time>
<desc>lat.=22.334457, lon.=103.778816, Alt.=2098.283203m. Speed=1.728000m/h.</desc>
<speed>0.480000</speed>
</trkpt>
<trkpt lat="22.334791" lon="103.778870">
<ele>2096.8</ele>
<time>2011-04-24T10:09:58Z</time>
<desc>lat.=22.334791, lon.=103.778870, Alt.=2103.658203m. Speed=4.860000m/h.</desc>
<speed>1.350000</speed>
</trkpt>
<trkpt lat="22.334963" lon="103.779182">
<ele>2093.2</ele>
<time>2011-04-24T10:10:43Z</time>
<desc>lat.=22.334963, lon.=103.779182, Alt.=2090.033203m. Speed=2.988000m/h.</desc>
<speed>0.830000</speed>
</trkpt>
<trkpt lat="22.335508" lon="103.779594">
<ele>2078.1</ele>
<time>2011-04-24T10:12:08Z</time>
<desc>lat.=22.335508, lon.=103.779594, Alt.=2081.095703m. Speed=1.872000m/h.</desc>
<speed>0.520000</speed>
</trkpt>
<trkpt lat="22.336630" lon="103.779671">
<ele>2072.5</ele>
<time>2011-04-24T10:14:18Z</time>
<desc>lat.=22.336630, lon.=103.779671, Alt.=2067.533203m. Speed=2.880000m/h.</desc>
<speed>0.800000</speed>
</trkpt>
<trkpt lat="22.337095" lon="103.779388">
<ele>2077.1</ele>
<time>2011-04-24T10:15:38Z</time>
<desc>lat.=22.337095, lon.=103.779388, Alt.=2066.533203m. Speed=4.644000m/h.</desc>
<speed>1.290000</speed>
</trkpt>
<trkpt lat="22.337479" lon="103.779358">
<ele>2071.2</ele>
<time>2011-04-24T10:16:23Z</time>
<desc>lat.=22.337479, lon.=103.779358, Alt.=2067.970703m. Speed=4.392000m/h.</desc>
<speed>1.220000</speed>
</trkpt>
<trkpt lat="22.337740" lon="103.778748">
<ele>2078.0</ele>
<time>2011-04-24T10:17:43Z</time>
<desc>lat.=22.337740, lon.=103.778748, Alt.=2072.158203m. Speed=2.808000m/h.</desc>
<speed>0.780000</speed>
</trkpt>
<trkpt lat="22.338156" lon="103.778381">
<ele>2076.7</ele>
<time>2011-04-24T10:19:08Z</time>
<desc>lat.=22.338156, lon.=103.778381, Alt.=2075.908203m. Speed=5.724000m/h.</desc>
<speed>1.590000</speed>
</trkpt>
<trkpt lat="22.338079" lon="103.777786">
<ele>2086.6</ele>
<time>2011-04-24T10:20:38Z</time>
<desc>lat.=22.338079, lon.=103.777786, Alt.=2073.408203m. Speed=2.808000m/h.</desc>
<speed>0.780000</speed>
</trkpt>
<trkpt lat="22.338226" lon="103.776932">
<ele>2095.0</ele>
<time>2011-04-24T10:22:28Z</time>
<desc>lat.=22.338226, lon.=103.776932, Alt.=2085.845703m. Speed=2.772000m/h.</desc>
<speed>0.770000</speed>
</trkpt>
<trkpt lat="22.338827" lon="103.776596">
<ele>2080.0</ele>
<time>2011-04-24T10:23:53Z</time>
<desc>lat.=22.338827, lon.=103.776596, Alt.=2080.220703m. Speed=1.224000m/h.</desc>
<speed>0.340000</speed>
</trkpt>
<trkpt lat="22.338997" lon="103.776131">
<ele>2076.1</ele>
<time>2011-04-24T10:25:53Z</time>
<desc>lat.=22.338997, lon.=103.776131, Alt.=2066.158203m. Speed=1.224000m/h.</desc>
<speed>0.340000</speed>
</trkpt>
<trkpt lat="22.339430" lon="103.775818">
<ele>2058.5</ele>
<time>2011-04-24T10:27:08Z</time>
<desc>lat.=22.339430, lon.=103.775818, Alt.=2066.658203m. Speed=1.908000m/h.</desc>
<speed>0.530000</speed>
</trkpt>
<trkpt lat="22.340126" lon="103.775940">
<ele>2038.9</ele>
<time>2011-04-24T10:29:53Z</time>
<desc>lat.=22.340126, lon.=103.775940, Alt.=2049.783203m. Speed=0.828000m/h.</desc>
<speed>0.230000</speed>
</trkpt>
<trkpt lat="22.340620" lon="103.776222">
<ele>2022.3</ele>
<time>2011-04-24T10:32:08Z</time>
<desc>lat.=22.340620, lon.=103.776222, Alt.=2026.204102m. Speed=1.656000m/h.</desc>
<speed>0.460000</speed>
</trkpt>
<trkpt lat="22.341223" lon="103.776085">
<ele>2011.7</ele>
<time>2011-04-24T10:33:38Z</time>
<desc>lat.=22.341223, lon.=103.776085, Alt.=2026.704102m. Speed=1.656000m/h.</desc>
<speed>0.460000</speed>
</trkpt>
<trkpt lat="22.341570" lon="103.776352">
<ele>2008.5</ele>
<time>2011-04-24T10:34:38Z</time>
<desc>lat.=22.341570, lon.=103.776352, Alt.=2009.766602m. Speed=4.248000m/h.</desc>
<speed>1.180000</speed>
</trkpt>
<trkpt lat="22.342352" lon="103.776321">
<ele>2006.2</ele>
<time>2011-04-24T10:36:23Z</time>
<desc>lat.=22.342352, lon.=103.776321, Alt.=1999.641602m. Speed=3.240000m/h.</desc>
<speed>0.900000</speed>
</trkpt>
<trkpt lat="22.342743" lon="103.776176">
<ele>2015.9</ele>
<time>2011-04-24T10:37:28Z</time>
<desc>lat.=22.342743, lon.=103.776176, Alt.=2005.360352m. Speed=2.340000m/h.</desc>
<speed>0.650000</speed>
</trkpt>
<trkpt lat="22.343100" lon="103.775642">
<ele>2016.5</ele>
<time>2011-04-24T10:39:28Z</time>
<desc>lat.=22.343100, lon.=103.775642, Alt.=2016.172852m. Speed=1.368000m/h.</desc>
<speed>0.380000</speed>
</trkpt>
<trkpt lat="22.343613" lon="103.775246">
<ele>2020.7</ele>
<time>2011-04-24T10:40:23Z</time>
<desc>lat.=22.343613, lon.=103.775246, Alt.=2020.297852m. Speed=3.816000m/h.</desc>
<speed>1.060000</speed>
</trkpt>
<trkpt lat="22.344112" lon="103.775330">
<ele>2022.5</ele>
<time>2011-04-24T10:41:13Z</time>
<desc>lat.=22.344112, lon.=103.775330, Alt.=2021.391602m. Speed=4.068000m/h.</desc>
<speed>1.130000</speed>
</trkpt>
<trkpt lat="22.345650" lon="103.775093">
<ele>2023.2</ele>
<time>2011-04-24T10:43:48Z</time>
<desc>lat.=22.345650, lon.=103.775093, Alt.=2021.672852m. Speed=5.220000m/h.</desc>
<speed>1.450000</speed>
</trkpt>
<trkpt lat="22.346052" lon="103.774574">
<ele>2023.5</ele>
<time>2011-04-24T10:45:13Z</time>
<desc>lat.=22.346052, lon.=103.774574, Alt.=2020.672852m. Speed=0.936000m/h.</desc>
<speed>0.260000</speed>
</trkpt>
<trkpt lat="22.346458" lon="103.774437">
<ele>2017.6</ele>
<time>2011-04-24T10:46:43Z</time>
<desc>lat.=22.346458, lon.=103.774437, Alt.=2017.016602m. Speed=0.216000m/h.</desc>
<speed>0.060000</speed>
</trkpt>
<trkpt lat="22.346472" lon="103.774261">
<ele>2014.1</ele>
<time>2011-04-24T10:48:38Z</time>
<desc>lat.=22.346472, lon.=103.774261, Alt.=2009.672852m. Speed=1.656000m/h.</desc>
<speed>0.460000</speed>
</trkpt>
<trkpt lat="22.346962" lon="103.773857">
<ele>2002.5</ele>
<time>2011-04-24T10:50:58Z</time>
<desc>lat.=22.346962, lon.=103.773857, Alt.=1995.735352m. Speed=2.448000m/h.</desc>
<speed>0.680000</speed>
</trkpt>
<trkpt lat="22.347179" lon="103.773773">
<ele>1994.1</ele>
<time>2011-04-24T10:52:28Z</time>
<desc>lat.=22.347179, lon.=103.773773, Alt.=1993.141602m. Speed=0.360000m/h.</desc>
<speed>0.100000</speed>
</trkpt>
<trkpt lat="22.347260" lon="103.773880">
<ele>1994.1</ele>
<time>2011-04-24T10:52:58Z</time>
<desc>lat.=22.347260, lon.=103.773880, Alt.=1992.297852m. Speed=1.836000m/h.</desc>
<speed>0.510000</speed>
</trkpt>
<trkpt lat="22.347446" lon="103.773560">
<ele>1980.2</ele>
<time>2011-04-24T10:54:48Z</time>
<desc>lat.=22.347446, lon.=103.773560, Alt.=1980.360352m. Speed=2.952000m/h.</desc>
<speed>0.820000</speed>
</trkpt>
<trkpt lat="22.347761" lon="103.773651">
<ele>1979.1</ele>
<time>2011-04-24T10:55:43Z</time>
<desc>lat.=22.347761, lon.=103.773651, Alt.=1982.766602m. Speed=3.456000m/h.</desc>
<speed>0.960000</speed>
</trkpt>
<trkpt lat="22.348738" lon="103.774399">
<ele>1962.8</ele>
<time>2011-04-24T10:59:03Z</time>
<desc>lat.=22.348738, lon.=103.774399, Alt.=1967.579102m. Speed=0.180000m/h.</desc>
<speed>0.050000</speed>
</trkpt>
<trkpt lat="22.349968" lon="103.774208">
<ele>1924.4</ele>
<time>2011-04-24T11:03:48Z</time>
<desc>lat.=22.349968, lon.=103.774208, Alt.=1926.329102m. Speed=1.944000m/h.</desc>
<speed>0.540000</speed>
</trkpt>
<trkpt lat="22.350775" lon="103.774635">
<ele>1931.2</ele>
<time>2011-04-24T11:07:53Z</time>
<desc>lat.=22.350775, lon.=103.774635, Alt.=1916.266602m. Speed=0.216000m/h.</desc>
<speed>0.060000</speed>
</trkpt>
<trkpt lat="22.350941" lon="103.774551">
<ele>1931.7</ele>
<time>2011-04-24T11:08:33Z</time>
<desc>lat.=22.350941, lon.=103.774551, Alt.=1923.110352m. Speed=3.312000m/h.</desc>
<speed>0.920000</speed>
</trkpt>
<trkpt lat="22.351166" lon="103.774788">
<ele>1937.0</ele>
<time>2011-04-24T11:09:08Z</time>
<desc>lat.=22.351166, lon.=103.774788, Alt.=1935.454102m. Speed=2.988000m/h.</desc>
<speed>0.830000</speed>
</trkpt>
<trkpt lat="22.351835" lon="103.774635">
<ele>1935.4</ele>
<time>2011-04-24T11:11:18Z</time>
<desc>lat.=22.351835, lon.=103.774635, Alt.=1937.641602m. Speed=1.044000m/h.</desc>
<speed>0.290000</speed>
</trkpt>
<trkpt lat="22.352701" lon="103.774696">
<ele>1950.0</ele>
<time>2011-04-24T11:13:33Z</time>
<desc>lat.=22.352701, lon.=103.774696, Alt.=1946.454102m. Speed=3.168000m/h.</desc>
<speed>0.880000</speed>
</trkpt>
<trkpt lat="22.352884" lon="103.774841">
<ele>1958.1</ele>
<time>2011-04-24T11:17:48Z</time>
<desc>lat.=22.352884, lon.=103.774841, Alt.=1943.329102m. Speed=0.072000m/h.</desc>
<speed>0.020000</speed>
</trkpt>
	</trkseg></trk>
</gpx>